PWSweather.com
Personal Weather Stations
Station Observations
DL5ARK
SonnebergDE

SonnebergDE

Lat: 50.34904861, Lon: 11.18112087

Elevation: 1214

Station Type: Selfmade

http://www.sumbarg.de

High Low Average
Temperature 46.7°F8.2°C 35.6°F2.0°C 42.1°F5.6°C
Dew Point 46.5°F8.1°C 38.2°F3.4°C 42.6°F5.9°C
Winds 16.1 mph 25.9 kmh Calm Calm 3.0 mph WSW4.8 kmh WSW
Wind Gusts 16.3 mph26.2 kmh -- 4.0 mph6.4 kmh
Humidity 91% 72% 79%
Pressure 29.71 in1006.1 mb 29.46 in997.6 mb -
Precipitation 0.20 in5.1 mm - -
Hour Temp Dew Point Humidity Winds Wind Gusts Pressure Precip Precip Rate Daily Precip Total
12:01 AM 45.8°F7.7°C 46.4°F8.0°C 81% 2.8 mph NNW4.5 kmh NNW 2.8 mph4.5 kmh 29.55 in1000.7 mb 0.00 in0.0 mm 0.00 in0.0 mm 0.00 in0.0 mm
12:04 AM 45.7°F7.6°C 46.4°F8.0°C 81% 2.0 mph SW3.2 kmh SW 2.0 mph3.2 kmh 29.55 in1000.7 mb 0.00 in0.0 mm 0.00 in0.0 mm 0.00 in0.0 mm
12:07 AM 45.8°F7.7°C 46.4°F8.0°C 81% 2.0 mph W3.2 kmh W 2.0 mph3.2 kmh 29.55 in1000.7 mb 0.00 in0.0 mm 0.00 in0.0 mm 0.00 in0.0 mm
12:10 AM 45.8°F7.7°C 45.8°F7.7°C 80% 1.6 mph NNW2.6 kmh NNW 1.6 mph2.6 kmh 29.55 in1000.7 mb 0.00 in0.0 mm 0.00 in0.0 mm 0.00 in0.0 mm
12:13 AM 45.7°F7.6°C 46.0°F7.8°C 80% 2.8 mph NNW4.5 kmh NNW 2.8 mph4.5 kmh 29.55 in1000.7 mb 0.00 in0.0 mm 0.00 in0.0 mm 0.00 in0.0 mm
12:16 AM 45.8°F7.7°C 46.1°F7.8°C 81% 0.4 mph SW0.6 kmh SW 0.4 mph0.6 kmh 29.55 in1000.7 mb 0.00 in0.0 mm 0.00 in0.0 mm 0.00 in0.0 mm
12:19 AM 45.8°F7.7°C 46.1°F7.8°C 81% Calm Calm -- 29.55 in1000.7 mb 0.00 in0.0 mm 0.00 in0.0 mm 0.00 in0.0 mm
12:25 AM 46.4°F8.0°C 45.9°F7.7°C 80% 2.0 mph SW3.2 kmh SW 2.0 mph3.2 kmh 29.55 in1000.7 mb 0.00 in0.0 mm 0.00 in0.0 mm 0.00 in0.0 mm
12:28 AM 46.3°F7.9°C 46.3°F7.9°C 80% 4.0 mph WSW6.4 kmh WSW 4.0 mph6.4 kmh 29.55 in1000.7 mb 0.00 in0.0 mm 0.00 in0.0 mm 0.00 in0.0 mm
12:31 AM 46.3°F7.9°C 46.1°F7.8°C 80% 3.2 mph SSW5.1 kmh SSW 3.3 mph5.3 kmh 29.55 in1000.7 mb 0.00 in0.0 mm 0.00 in0.0 mm 0.00 in0.0 mm
12:34 AM 46.3°F7.9°C 46.3°F7.9°C 80% 5.6 mph SW9.0 kmh SW 5.7 mph9.2 kmh 29.54 in1000.3 mb 0.00 in0.0 mm 0.00 in0.0 mm 0.00 in0.0 mm
12:37 AM 46.7°F8.2°C 46.0°F7.8°C 80% 4.4 mph W7.1 kmh W 4.5 mph7.2 kmh 29.54 in1000.3 mb 0.00 in0.0 mm 0.00 in0.0 mm 0.00 in0.0 mm
12:40 AM 46.5°F8.1°C 45.9°F7.7°C 80% 1.6 mph SW2.6 kmh SW 1.6 mph2.6 kmh 29.54 in1000.3 mb 0.00 in0.0 mm 0.00 in0.0 mm 0.00 in0.0 mm
12:43 AM 46.3°F7.9°C 46.2°F7.9°C 80% 3.2 mph SW5.1 kmh SW 3.2 mph5.1 kmh 29.55 in1000.7 mb 0.00 in0.0 mm 0.00 in0.0 mm 0.00 in0.0 mm
12:46 AM 46.2°F7.9°C 45.9°F7.7°C 79% 1.2 mph W1.9 kmh W 1.2 mph1.9 kmh 29.55 in1000.7 mb 0.00 in0.0 mm 0.00 in0.0 mm 0.00 in0.0 mm
12:49 AM 46.1°F7.8°C 46.1°F7.8°C 80% 4.4 mph W7.1 kmh W 4.4 mph7.1 kmh 29.55 in1000.7 mb 0.00 in0.0 mm 0.00 in0.0 mm 0.00 in0.0 mm
12:52 AM 46.5°F8.1°C 45.8°F7.7°C 79% 6.0 mph SW9.7 kmh SW 6.0 mph9.7 kmh 29.54 in1000.3 mb 0.00 in0.0 mm 0.00 in0.0 mm 0.00 in0.0 mm
12:55 AM 46.2°F7.9°C 46.1°F7.8°C 80% 5.2 mph NNW8.4 kmh NNW 5.2 mph8.4 kmh 29.54 in1000.3 mb 0.00 in0.0 mm 0.00 in0.0 mm 0.00 in0.0 mm
12:58 AM 46.2°F7.9°C 46.4°F8.0°C 80% 4.0 mph W6.4 kmh W 4.1 mph6.6 kmh 29.54 in1000.3 mb 0.00 in0.0 mm 0.00 in0.0 mm 0.00 in0.0 mm
01:01 AM 46.3°F7.9°C 45.9°F7.7°C 79% 5.3 mph SW8.5 kmh SW 5.3 mph8.5 kmh 29.53 in1000.0 mb 0.00 in0.0 mm 0.00 in0.0 mm 0.00 in0.0 mm
01:04 AM 46.3°F7.9°C 45.7°F7.6°C 78% 4.4 mph WSW7.1 kmh WSW 4.5 mph7.2 kmh 29.54 in1000.3 mb 0.00 in0.0 mm 0.00 in0.0 mm 0.00 in0.0 mm
01:07 AM 46.2°F7.9°C 45.6°F7.6°C 78% 5.6 mph WSW9.0 kmh WSW 5.7 mph9.2 kmh 29.53 in1000.0 mb 0.00 in0.0 mm 0.00 in0.0 mm 0.00 in0.0 mm
01:10 AM 46.2°F7.9°C 45.7°F7.6°C 78% 3.6 mph NNW5.8 kmh NNW 3.6 mph5.8 kmh 29.53 in1000.0 mb 0.00 in0.0 mm 0.00 in0.0 mm 0.00 in0.0 mm
01:13 AM 45.7°F7.6°C 45.9°F7.7°C 79% 2.8 mph SW4.5 kmh SW 2.8 mph4.5 kmh 29.53 in1000.0 mb 0.00 in0.0 mm 0.00 in0.0 mm 0.00 in0.0 mm
01:16 AM 45.7°F7.6°C 45.6°F7.6°C 78% 4.8 mph WSW7.7 kmh WSW 4.9 mph7.9 kmh 29.53 in1000.0 mb 0.00 in0.0 mm 0.00 in0.0 mm 0.00 in0.0 mm
01:19 AM 46.1°F7.8°C 45.7°F7.6°C 79% 5.6 mph NNW9.0 kmh NNW 5.6 mph9.0 kmh 29.54 in1000.3 mb 0.00 in0.0 mm 0.00 in0.0 mm 0.00 in0.0 mm
01:22 AM 46.0°F7.8°C 45.7°F7.6°C 79% Calm Calm -- 29.54 in1000.3 mb 0.00 in0.0 mm 0.00 in0.0 mm 0.00 in0.0 mm
01:25 AM 46.2°F7.9°C 45.7°F7.6°C 79% 8.9 mph SSW14.3 kmh SSW 9.0 mph14.5 kmh 29.54 in1000.3 mb 0.00 in0.0 mm 0.00 in0.0 mm 0.00 in0.0 mm
01:28 AM 46.1°F7.8°C 45.8°F7.7°C 79% 1.6 mph W2.6 kmh W 1.6 mph2.6 kmh 29.54 in1000.3 mb 0.00 in0.0 mm 0.00 in0.0 mm 0.00 in0.0 mm
01:31 AM 46.3°F7.9°C 45.5°F7.5°C 78% 6.4 mph WSW10.3 kmh WSW 6.4 mph10.3 kmh 29.54 in1000.3 mb 0.00 in0.0 mm 0.00 in0.0 mm 0.00 in0.0 mm
01:34 AM 46.2°F7.9°C 45.6°F7.6°C 79% 1.6 mph SW2.6 kmh SW 1.6 mph2.6 kmh 29.54 in1000.3 mb 0.00 in0.0 mm 0.00 in0.0 mm 0.00 in0.0 mm
01:37 AM 46.0°F7.8°C 45.9°F7.7°C 79% 4.4 mph SSE7.1 kmh SSE 4.5 mph7.2 kmh 29.53 in1000.0 mb 0.00 in0.0 mm 0.00 in0.0 mm 0.00 in0.0 mm
01:40 AM 46.1°F7.8°C 45.8°F7.7°C 79% 0.4 mph SW0.6 kmh SW 0.4 mph0.6 kmh 29.54 in1000.3 mb 0.00 in0.0 mm 0.00 in0.0 mm 0.00 in0.0 mm
01:43 AM 46.3°F7.9°C 45.7°F7.6°C 78% 1.2 mph SW1.9 kmh SW 1.2 mph1.9 kmh 29.54 in1000.3 mb 0.00 in0.0 mm 0.00 in0.0 mm 0.00 in0.0 mm
01:46 AM 46.2°F7.9°C 45.5°F7.5°C 78% 7.5 mph WNW12.1 kmh WNW 7.6 mph12.2 kmh 29.54 in1000.3 mb 0.00 in0.0 mm 0.00 in0.0 mm 0.00 in0.0 mm
01:49 AM 46.6°F8.1°C 45.4°F7.4°C 78% 4.4 mph WSW7.1 kmh WSW 4.4 mph7.1 kmh 29.54 in1000.3 mb 0.00 in0.0 mm 0.00 in0.0 mm 0.00 in0.0 mm
01:52 AM 46.6°F8.1°C 45.5°F7.5°C 78% 7.1 mph WSW11.4 kmh WSW 7.2 mph11.6 kmh 29.54 in1000.3 mb 0.00 in0.0 mm 0.00 in0.0 mm 0.00 in0.0 mm
01:55 AM 46.5°F8.1°C 45.7°F7.6°C 78% 5.3 mph NNW8.5 kmh NNW 5.3 mph8.5 kmh 29.54 in1000.3 mb 0.00 in0.0 mm 0.00 in0.0 mm 0.00 in0.0 mm
01:58 AM 46.6°F8.1°C 45.7°F7.6°C 78% 5.7 mph NNW9.2 kmh NNW 5.7 mph9.2 kmh 29.54 in1000.3 mb 0.00 in0.0 mm 0.00 in0.0 mm 0.00 in0.0 mm
02:01 AM 46.6°F8.1°C 45.6°F7.6°C 78% 4.0 mph WSW6.4 kmh WSW 4.1 mph6.6 kmh 29.54 in1000.3 mb 0.00 in0.0 mm 0.00 in0.0 mm 0.00 in0.0 mm
02:04 AM 46.5°F8.1°C 45.7°F7.6°C 78% 2.8 mph WSW4.5 kmh WSW 2.9 mph4.7 kmh 29.55 in1000.7 mb 0.00 in0.0 mm 0.00 in0.0 mm 0.00 in0.0 mm
02:07 AM 46.7°F8.2°C 45.6°F7.6°C 78% 2.8 mph WSW4.5 kmh WSW 2.8 mph4.5 kmh 29.54 in1000.3 mb 0.00 in0.0 mm 0.00 in0.0 mm 0.00 in0.0 mm
02:10 AM 46.4°F8.0°C 45.7°F7.6°C 78% Calm Calm -- 29.55 in1000.7 mb 0.00 in0.0 mm 0.00 in0.0 mm 0.00 in0.0 mm
02:13 AM 46.3°F7.9°C 45.8°F7.7°C 78% 2.0 mph W3.2 kmh W 2.0 mph3.2 kmh 29.55 in1000.7 mb 0.00 in0.0 mm 0.00 in0.0 mm 0.00 in0.0 mm
02:16 AM 46.3°F7.9°C 45.7°F7.6°C 78% 4.0 mph NNW6.4 kmh NNW 4.1 mph6.6 kmh 29.55 in1000.7 mb 0.00 in0.0 mm 0.00 in0.0 mm 0.00 in0.0 mm
02:19 AM 46.4°F8.0°C 45.6°F7.6°C 77% 2.4 mph WSW3.9 kmh WSW 2.4 mph3.9 kmh 29.55 in1000.7 mb 0.00 in0.0 mm 0.00 in0.0 mm 0.00 in0.0 mm
02:22 AM 46.7°F8.2°C 45.8°F7.7°C 78% 8.9 mph NNW14.3 kmh NNW 9.0 mph14.5 kmh 29.55 in1000.7 mb 0.00 in0.0 mm 0.00 in0.0 mm 0.00 in0.0 mm
02:25 AM 46.4°F8.0°C 45.6°F7.6°C 78% 4.4 mph W7.1 kmh W 4.4 mph7.1 kmh 29.55 in1000.7 mb 0.00 in0.0 mm 0.00 in0.0 mm 0.00 in0.0 mm
02:31 AM 46.4°F8.0°C 46.0°F7.8°C 78% 5.7 mph NW9.2 kmh NW 5.7 mph9.2 kmh 29.55 in1000.7 mb 0.00 in0.0 mm 0.00 in0.0 mm 0.00 in0.0 mm
02:34 AM 46.6°F8.1°C 45.9°F7.7°C 79% 10.3 mph WSW16.6 kmh WSW 10.4 mph16.7 kmh 29.55 in1000.7 mb 0.00 in0.0 mm 0.00 in0.0 mm 0.00 in0.0 mm
02:37 AM 46.3°F7.9°C 46.0°F7.8°C 78% 2.0 mph NNW3.2 kmh NNW 2.0 mph3.2 kmh 29.55 in1000.7 mb 0.00 in0.0 mm 0.00 in0.0 mm 0.00 in0.0 mm
02:40 AM 46.3°F7.9°C 45.8°F7.7°C 78% 2.0 mph NW3.2 kmh NW 2.0 mph3.2 kmh 29.55 in1000.7 mb 0.00 in0.0 mm 0.00 in0.0 mm 0.00 in0.0 mm
02:43 AM 46.3°F7.9°C 45.7°F7.6°C 78% 5.2 mph WNW8.4 kmh WNW 5.2 mph8.4 kmh 29.55 in1000.7 mb 0.00 in0.0 mm 0.00 in0.0 mm 0.00 in0.0 mm
02:46 AM 46.2°F7.9°C 45.8°F7.7°C 78% 6.4 mph NW10.3 kmh NW 6.4 mph10.3 kmh 29.56 in1001.0 mb 0.00 in0.0 mm 0.00 in0.0 mm 0.00 in0.0 mm
02:49 AM 46.3°F7.9°C 45.7°F7.6°C 78% 6.9 mph WNW11.1 kmh WNW 6.9 mph11.1 kmh 29.55 in1000.7 mb 0.00 in0.0 mm 0.00 in0.0 mm 0.00 in0.0 mm
02:52 AM 46.1°F7.8°C 46.1°F7.8°C 79% 4.0 mph W6.4 kmh W 4.1 mph6.6 kmh 29.56 in1001.0 mb 0.00 in0.0 mm 0.00 in0.0 mm 0.00 in0.0 mm
02:55 AM 46.1°F7.8°C 46.2°F7.9°C 79% 1.6 mph WSW2.6 kmh WSW 1.6 mph2.6 kmh 29.57 in1001.4 mb 0.00 in0.0 mm 0.00 in0.0 mm 0.00 in0.0 mm
02:58 AM 46.1°F7.8°C 45.9°F7.7°C 79% 4.0 mph WNW6.4 kmh WNW 4.1 mph6.6 kmh 29.56 in1001.0 mb 0.00 in0.0 mm 0.00 in0.0 mm 0.00 in0.0 mm
03:01 AM 46.2°F7.9°C 46.0°F7.8°C 79% 2.4 mph NNW3.9 kmh NNW 2.4 mph3.9 kmh 29.57 in1001.4 mb 0.00 in0.0 mm 0.00 in0.0 mm 0.00 in0.0 mm
03:04 AM 46.2°F7.9°C 46.0°F7.8°C 79% 6.4 mph W10.3 kmh W 6.4 mph10.3 kmh 29.56 in1001.0 mb 0.00 in0.0 mm 0.00 in0.0 mm 0.00 in0.0 mm
03:07 AM 46.2°F7.9°C 46.1°F7.8°C 79% 1.6 mph NNW2.6 kmh NNW 1.6 mph2.6 kmh 29.56 in1001.0 mb 0.00 in0.0 mm 0.00 in0.0 mm 0.00 in0.0 mm
03:10 AM 46.1°F7.8°C 46.2°F7.9°C 79% 2.8 mph WNW4.5 kmh WNW 2.9 mph4.7 kmh 29.56 in1001.0 mb 0.00 in0.0 mm 0.00 in0.0 mm 0.00 in0.0 mm
03:13 AM 46.2°F7.9°C 46.1°F7.8°C 79% Calm Calm -- 29.56 in1001.0 mb 0.00 in0.0 mm 0.00 in0.0 mm 0.00 in0.0 mm
03:16 AM 46.0°F7.8°C 46.0°F7.8°C 79% 4.8 mph NNW7.7 kmh NNW 4.8 mph7.7 kmh 29.56 in1001.0 mb 0.00 in0.0 mm 0.00 in0.0 mm 0.00 in0.0 mm
03:19 AM 46.2°F7.9°C 46.0°F7.8°C 79% 2.4 mph W3.9 kmh W 2.4 mph3.9 kmh 29.56 in1001.0 mb 0.00 in0.0 mm 0.00 in0.0 mm 0.00 in0.0 mm
03:22 AM 46.3°F7.9°C 46.3°F7.9°C 79% 4.4 mph W7.1 kmh W 4.5 mph7.2 kmh 29.56 in1001.0 mb 0.00 in0.0 mm 0.00 in0.0 mm 0.00 in0.0 mm
03:25 AM 46.2°F7.9°C 46.3°F7.9°C 79% 1.6 mph NNW2.6 kmh NNW 1.6 mph2.6 kmh 29.57 in1001.4 mb 0.00 in0.0 mm 0.00 in0.0 mm 0.00 in0.0 mm
03:28 AM 46.3°F7.9°C 46.3°F7.9°C 79% 9.7 mph W15.6 kmh W 9.8 mph15.8 kmh 29.57 in1001.4 mb 0.00 in0.0 mm 0.00 in0.0 mm 0.00 in0.0 mm
03:31 AM 46.3°F7.9°C 46.3°F7.9°C 79% 4.4 mph W7.1 kmh W 4.5 mph7.2 kmh 29.57 in1001.4 mb 0.00 in0.0 mm 0.00 in0.0 mm 0.00 in0.0 mm
03:34 AM 46.3°F7.9°C 46.3°F7.9°C 79% 6.5 mph W10.5 kmh W 6.5 mph10.5 kmh 29.57 in1001.4 mb 0.00 in0.0 mm 0.00 in0.0 mm 0.00 in0.0 mm
03:37 AM 46.4°F8.0°C 46.3°F7.9°C 79% 4.4 mph W7.1 kmh W 4.5 mph7.2 kmh 29.57 in1001.4 mb 0.00 in0.0 mm 0.00 in0.0 mm 0.00 in0.0 mm
03:40 AM 46.2°F7.9°C 46.2°F7.9°C 79% 4.4 mph NW7.1 kmh NW 4.5 mph7.2 kmh 29.57 in1001.4 mb 0.00 in0.0 mm 0.00 in0.0 mm 0.00 in0.0 mm
03:43 AM 46.3°F7.9°C 46.3°F7.9°C 79% 3.6 mph NW5.8 kmh NW 3.6 mph5.8 kmh 29.57 in1001.4 mb 0.00 in0.0 mm 0.00 in0.0 mm 0.00 in0.0 mm
03:46 AM 46.5°F8.1°C 45.8°F7.7°C 79% 8.1 mph NNW13.0 kmh NNW 8.1 mph13.0 kmh 29.57 in1001.4 mb 0.00 in0.0 mm 0.00 in0.0 mm 0.00 in0.0 mm
03:49 AM 46.4°F8.0°C 46.3°F7.9°C 79% 5.2 mph W8.4 kmh W 5.3 mph8.5 kmh 29.57 in1001.4 mb 0.00 in0.0 mm 0.00 in0.0 mm 0.00 in0.0 mm
03:52 AM 46.3°F7.9°C 46.3°F7.9°C 79% Calm Calm -- 29.57 in1001.4 mb 0.00 in0.0 mm 0.00 in0.0 mm 0.00 in0.0 mm
03:55 AM 46.2°F7.9°C 46.5°F8.1°C 80% 7.7 mph WSW12.4 kmh WSW 7.7 mph12.4 kmh 29.57 in1001.4 mb 0.00 in0.0 mm 0.00 in0.0 mm 0.00 in0.0 mm
03:58 AM 46.3°F7.9°C 46.3°F7.9°C 79% 4.8 mph NNW7.7 kmh NNW 4.9 mph7.9 kmh 29.57 in1001.4 mb 0.00 in0.0 mm 0.00 in0.0 mm 0.00 in0.0 mm
04:01 AM 46.3°F7.9°C 46.1°F7.8°C 78% 4.4 mph W7.1 kmh W 4.4 mph7.1 kmh 29.57 in1001.4 mb 0.00 in0.0 mm 0.00 in0.0 mm 0.00 in0.0 mm
04:04 AM 46.2°F7.9°C 46.3°F7.9°C 79% 3.6 mph NNW5.8 kmh NNW 3.7 mph6.0 kmh 29.57 in1001.4 mb 0.00 in0.0 mm 0.00 in0.0 mm 0.00 in0.0 mm
04:07 AM 46.2°F7.9°C 46.1°F7.8°C 79% 7.3 mph WNW11.7 kmh WNW 7.3 mph11.7 kmh 29.57 in1001.4 mb 0.00 in0.0 mm 0.00 in0.0 mm 0.00 in0.0 mm
04:10 AM 46.1°F7.8°C 46.3°F7.9°C 79% 2.8 mph W4.5 kmh W 2.9 mph4.7 kmh 29.57 in1001.4 mb 0.00 in0.0 mm 0.00 in0.0 mm 0.00 in0.0 mm
04:13 AM 46.2°F7.9°C 46.1°F7.8°C 79% 7.1 mph W11.4 kmh W 7.1 mph11.4 kmh 29.57 in1001.4 mb 0.00 in0.0 mm 0.00 in0.0 mm 0.00 in0.0 mm
04:16 AM 46.4°F8.0°C 46.0°F7.8°C 79% 5.2 mph W8.4 kmh W 5.2 mph8.4 kmh 29.57 in1001.4 mb 0.00 in0.0 mm 0.00 in0.0 mm 0.00 in0.0 mm
04:19 AM 46.3°F7.9°C 46.1°F7.8°C 79% 5.2 mph WNW8.4 kmh WNW 5.2 mph8.4 kmh 29.57 in1001.4 mb 0.00 in0.0 mm 0.00 in0.0 mm 0.00 in0.0 mm
04:22 AM 46.2°F7.9°C 45.9°F7.7°C 78% 4.8 mph WNW7.7 kmh WNW 4.9 mph7.9 kmh 29.57 in1001.4 mb 0.00 in0.0 mm 0.00 in0.0 mm 0.00 in0.0 mm
04:25 AM 46.2°F7.9°C 46.0°F7.8°C 79% 4.8 mph NW7.7 kmh NW 4.8 mph7.7 kmh 29.57 in1001.4 mb 0.00 in0.0 mm 0.00 in0.0 mm 0.00 in0.0 mm
04:28 AM 46.1°F7.8°C 46.0°F7.8°C 79% 3.6 mph NNW5.8 kmh NNW 3.7 mph6.0 kmh 29.57 in1001.4 mb 0.00 in0.0 mm 0.00 in0.0 mm 0.00 in0.0 mm
04:31 AM 46.1°F7.8°C 45.8°F7.7°C 78% 7.3 mph W11.7 kmh W 7.3 mph11.7 kmh 29.57 in1001.4 mb 0.00 in0.0 mm 0.00 in0.0 mm 0.00 in0.0 mm
04:34 AM 46.1°F7.8°C 45.8°F7.7°C 78% 4.4 mph W7.1 kmh W 4.4 mph7.1 kmh 29.57 in1001.4 mb 0.00 in0.0 mm 0.00 in0.0 mm 0.00 in0.0 mm
04:37 AM 46.1°F7.8°C 45.7°F7.6°C 78% 7.2 mph NNW11.6 kmh NNW 7.2 mph11.6 kmh 29.57 in1001.4 mb 0.00 in0.0 mm 0.00 in0.0 mm 0.00 in0.0 mm
04:40 AM 46.2°F7.9°C 45.5°F7.5°C 78% 7.2 mph W11.6 kmh W 7.2 mph11.6 kmh 29.57 in1001.4 mb 0.00 in0.0 mm 0.00 in0.0 mm 0.00 in0.0 mm
04:43 AM 46.0°F7.8°C 45.7°F7.6°C 78% 9.3 mph NNW15.0 kmh NNW 9.4 mph15.1 kmh 29.58 in1001.7 mb 0.00 in0.0 mm 0.00 in0.0 mm 0.00 in0.0 mm
04:46 AM 46.0°F7.8°C 45.3°F7.4°C 77% 8.1 mph W13.0 kmh W 8.2 mph13.2 kmh 29.58 in1001.7 mb 0.00 in0.0 mm 0.00 in0.0 mm 0.00 in0.0 mm
04:49 AM 46.0°F7.8°C 45.6°F7.6°C 78% 6.1 mph W9.8 kmh W 6.1 mph9.8 kmh 29.58 in1001.7 mb 0.00 in0.0 mm 0.00 in0.0 mm 0.00 in0.0 mm
04:52 AM 45.8°F7.7°C 45.8°F7.7°C 78% 6.1 mph NNW9.8 kmh NNW 6.1 mph9.8 kmh 29.57 in1001.4 mb 0.00 in0.0 mm 0.00 in0.0 mm 0.00 in0.0 mm
04:55 AM 45.8°F7.7°C 45.6°F7.6°C 78% 4.9 mph NW7.9 kmh NW 4.9 mph7.9 kmh 29.57 in1001.4 mb 0.00 in0.0 mm 0.00 in0.0 mm 0.00 in0.0 mm
04:58 AM 46.0°F7.8°C 45.4°F7.4°C 78% 2.4 mph W3.9 kmh W 2.4 mph3.9 kmh 29.57 in1001.4 mb 0.00 in0.0 mm 0.00 in0.0 mm 0.00 in0.0 mm
05:01 AM 45.6°F7.6°C 45.2°F7.3°C 77% 2.4 mph WSW3.9 kmh WSW 2.4 mph3.9 kmh 29.57 in1001.4 mb 0.00 in0.0 mm 0.00 in0.0 mm 0.00 in0.0 mm
05:04 AM 45.6°F7.6°C 45.3°F7.4°C 77% 7.3 mph W11.7 kmh W 7.3 mph11.7 kmh 29.57 in1001.4 mb 0.00 in0.0 mm 0.00 in0.0 mm 0.00 in0.0 mm
05:07 AM 45.7°F7.6°C 45.1°F7.3°C 77% 6.9 mph WSW11.1 kmh WSW 7.0 mph11.3 kmh 29.57 in1001.4 mb 0.00 in0.0 mm 0.00 in0.0 mm 0.00 in0.0 mm
05:10 AM 45.5°F7.5°C 45.3°F7.4°C 77% 5.1 mph WNW8.2 kmh WNW 5.1 mph8.2 kmh 29.58 in1001.7 mb 0.00 in0.0 mm 0.00 in0.0 mm 0.00 in0.0 mm
05:13 AM 45.5°F7.5°C 44.9°F7.2°C 77% 2.8 mph NNW4.5 kmh NNW 2.9 mph4.7 kmh 29.58 in1001.7 mb 0.00 in0.0 mm 0.00 in0.0 mm 0.00 in0.0 mm
05:16 AM 45.3°F7.4°C 45.2°F7.3°C 77% 3.6 mph W5.8 kmh W 3.7 mph6.0 kmh 29.58 in1001.7 mb 0.00 in0.0 mm 0.00 in0.0 mm 0.00 in0.0 mm
05:19 AM 45.3°F7.4°C 45.0°F7.2°C 77% 3.2 mph W5.1 kmh W 3.3 mph5.3 kmh 29.58 in1001.7 mb 0.00 in0.0 mm 0.00 in0.0 mm 0.00 in0.0 mm
05:22 AM 45.4°F7.4°C 44.8°F7.1°C 77% 5.7 mph NNW9.2 kmh NNW 5.7 mph9.2 kmh 29.58 in1001.7 mb 0.00 in0.0 mm 0.00 in0.0 mm 0.00 in0.0 mm
05:25 AM 45.3°F7.4°C 44.8°F7.1°C 77% 6.4 mph W10.3 kmh W 6.4 mph10.3 kmh 29.58 in1001.7 mb 0.00 in0.0 mm 0.00 in0.0 mm 0.00 in0.0 mm
05:28 AM 45.3°F7.4°C 44.8°F7.1°C 77% 6.0 mph WNW9.7 kmh WNW 6.1 mph9.8 kmh 29.58 in1001.7 mb 0.00 in0.0 mm 0.00 in0.0 mm 0.00 in0.0 mm
05:31 AM 45.2°F7.3°C 44.8°F7.1°C 77% 3.2 mph SW5.1 kmh SW 3.3 mph5.3 kmh 29.58 in1001.7 mb 0.00 in0.0 mm 0.00 in0.0 mm 0.00 in0.0 mm
05:34 AM 45.3°F7.4°C 44.5°F6.9°C 77% 8.9 mph WNW14.3 kmh WNW 9.0 mph14.5 kmh 29.58 in1001.7 mb 0.00 in0.0 mm 0.00 in0.0 mm 0.00 in0.0 mm
05:37 AM 45.2°F7.3°C 44.6°F7.0°C 77% 4.0 mph WNW6.4 kmh WNW 4.1 mph6.6 kmh 29.58 in1001.7 mb 0.00 in0.0 mm 0.00 in0.0 mm 0.00 in0.0 mm
05:40 AM 45.1°F7.3°C 44.9°F7.2°C 77% 5.2 mph NW8.4 kmh NW 5.2 mph8.4 kmh 29.58 in1001.7 mb 0.00 in0.0 mm 0.00 in0.0 mm 0.00 in0.0 mm
05:43 AM 45.1°F7.3°C 44.8°F7.1°C 77% 5.2 mph NNW8.4 kmh NNW 5.2 mph8.4 kmh 29.58 in1001.7 mb 0.00 in0.0 mm 0.00 in0.0 mm 0.00 in0.0 mm
05:46 AM 44.8°F7.1°C 44.5°F6.9°C 77% 8.1 mph NNW13.0 kmh NNW 8.2 mph13.2 kmh 29.58 in1001.7 mb 0.00 in0.0 mm 0.00 in0.0 mm 0.00 in0.0 mm
05:49 AM 44.7°F7.1°C 44.8°F7.1°C 77% 1.6 mph WSW2.6 kmh WSW 1.6 mph2.6 kmh 29.59 in1002.0 mb 0.00 in0.0 mm 0.00 in0.0 mm 0.00 in0.0 mm
05:52 AM 44.6°F7.0°C 44.7°F7.1°C 77% 4.8 mph W7.7 kmh W 4.9 mph7.9 kmh 29.60 in1002.4 mb 0.00 in0.0 mm 0.00 in0.0 mm 0.00 in0.0 mm
05:55 AM 44.7°F7.1°C 44.7°F7.1°C 77% 4.4 mph WNW7.1 kmh WNW 4.4 mph7.1 kmh 29.60 in1002.4 mb 0.00 in0.0 mm 0.00 in0.0 mm 0.00 in0.0 mm
05:58 AM 44.6°F7.0°C 44.6°F7.0°C 77% 3.6 mph W5.8 kmh W 3.6 mph5.8 kmh 29.60 in1002.4 mb 0.00 in0.0 mm 0.00 in0.0 mm 0.00 in0.0 mm
06:01 AM 44.7°F7.1°C 44.2°F6.8°C 76% 4.8 mph NNW7.7 kmh NNW 4.8 mph7.7 kmh 29.60 in1002.4 mb 0.00 in0.0 mm 0.00 in0.0 mm 0.00 in0.0 mm
06:04 AM 44.7°F7.1°C 44.4°F6.9°C 77% 2.8 mph WNW4.5 kmh WNW 2.8 mph4.5 kmh 29.60 in1002.4 mb 0.00 in0.0 mm 0.00 in0.0 mm 0.00 in0.0 mm
06:07 AM 44.7°F7.1°C 44.2°F6.8°C 76% 6.3 mph WSW10.1 kmh WSW 6.3 mph10.1 kmh 29.60 in1002.4 mb 0.00 in0.0 mm 0.00 in0.0 mm 0.00 in0.0 mm
06:10 AM 44.5°F6.9°C 44.1°F6.7°C 76% 5.2 mph W8.4 kmh W 5.3 mph8.5 kmh 29.60 in1002.4 mb 0.00 in0.0 mm 0.00 in0.0 mm 0.00 in0.0 mm
06:13 AM 44.4°F6.9°C 43.9°F6.6°C 76% 4.8 mph W7.7 kmh W 4.9 mph7.9 kmh 29.60 in1002.4 mb 0.00 in0.0 mm 0.00 in0.0 mm 0.00 in0.0 mm
06:16 AM 44.5°F6.9°C 43.3°F6.3°C 75% 4.9 mph NNW7.9 kmh NNW 4.9 mph7.9 kmh 29.60 in1002.4 mb 0.00 in0.0 mm 0.00 in0.0 mm 0.00 in0.0 mm
06:19 AM 44.3°F6.8°C 43.4°F6.3°C 75% 4.8 mph W7.7 kmh W 4.9 mph7.9 kmh 29.60 in1002.4 mb 0.00 in0.0 mm 0.00 in0.0 mm 0.00 in0.0 mm
06:22 AM 44.0°F6.7°C 43.4°F6.3°C 75% 3.6 mph NNW5.8 kmh NNW 3.7 mph6.0 kmh 29.60 in1002.4 mb 0.00 in0.0 mm 0.00 in0.0 mm 0.00 in0.0 mm
06:25 AM 44.2°F6.8°C 43.3°F6.3°C 74% 2.0 mph WSW3.2 kmh WSW 2.0 mph3.2 kmh 29.60 in1002.4 mb 0.00 in0.0 mm 0.00 in0.0 mm 0.00 in0.0 mm
06:28 AM 44.0°F6.7°C 43.4°F6.3°C 75% 3.2 mph NNW5.1 kmh NNW 3.3 mph5.3 kmh 29.60 in1002.4 mb 0.00 in0.0 mm 0.00 in0.0 mm 0.00 in0.0 mm
06:31 AM 44.3°F6.8°C 43.4°F6.3°C 75% 4.8 mph NW7.7 kmh NW 4.9 mph7.9 kmh 29.60 in1002.4 mb 0.00 in0.0 mm 0.00 in0.0 mm 0.00 in0.0 mm
06:34 AM 44.2°F6.8°C 43.2°F6.2°C 75% 4.8 mph WSW7.7 kmh WSW 4.8 mph7.7 kmh 29.60 in1002.4 mb 0.00 in0.0 mm 0.00 in0.0 mm 0.00 in0.0 mm
06:37 AM 44.2°F6.8°C 43.5°F6.4°C 75% 3.6 mph NNW5.8 kmh NNW 3.7 mph6.0 kmh 29.60 in1002.4 mb 0.00 in0.0 mm 0.00 in0.0 mm 0.00 in0.0 mm
06:40 AM 44.2°F6.8°C 43.6°F6.4°C 75% 4.4 mph SW7.1 kmh SW 4.4 mph7.1 kmh 29.60 in1002.4 mb 0.00 in0.0 mm 0.00 in0.0 mm 0.00 in0.0 mm
06:43 AM 44.3°F6.8°C 43.2°F6.2°C 75% 5.6 mph WSW9.0 kmh WSW 5.7 mph9.2 kmh 29.61 in1002.7 mb 0.00 in0.0 mm 0.00 in0.0 mm 0.00 in0.0 mm
06:46 AM 44.4°F6.9°C 43.7°F6.5°C 76% 7.5 mph WNW12.1 kmh WNW 7.6 mph12.2 kmh 29.61 in1002.7 mb 0.00 in0.0 mm 0.00 in0.0 mm 0.00 in0.0 mm
06:49 AM 44.2°F6.8°C 43.9°F6.6°C 77% 6.8 mph WSW10.9 kmh WSW 6.8 mph10.9 kmh 29.61 in1002.7 mb 0.00 in0.0 mm 0.00 in0.0 mm 0.00 in0.0 mm
06:52 AM 44.3°F6.8°C 43.9°F6.6°C 77% 4.8 mph W7.7 kmh W 4.8 mph7.7 kmh 29.61 in1002.7 mb 0.00 in0.0 mm 0.00 in0.0 mm 0.00 in0.0 mm
06:55 AM 44.2°F6.8°C 44.0°F6.7°C 77% 2.0 mph NNW3.2 kmh NNW 2.0 mph3.2 kmh 29.61 in1002.7 mb 0.00 in0.0 mm 0.00 in0.0 mm 0.00 in0.0 mm
06:58 AM 44.2°F6.8°C 44.1°F6.7°C 78% 5.6 mph SW9.0 kmh SW 5.7 mph9.2 kmh 29.61 in1002.7 mb 0.00 in0.0 mm 0.00 in0.0 mm 0.00 in0.0 mm
07:01 AM 44.3°F6.8°C 44.1°F6.7°C 78% 5.6 mph W9.0 kmh W 5.6 mph9.0 kmh 29.61 in1002.7 mb 0.00 in0.0 mm 0.00 in0.0 mm 0.00 in0.0 mm
07:04 AM 44.0°F6.7°C 44.3°F6.8°C 78% 3.6 mph SW5.8 kmh SW 3.7 mph6.0 kmh 29.61 in1002.7 mb 0.00 in0.0 mm 0.00 in0.0 mm 0.00 in0.0 mm
07:07 AM 44.2°F6.8°C 44.3°F6.8°C 78% 3.6 mph WSW5.8 kmh WSW 3.7 mph6.0 kmh 29.61 in1002.7 mb 0.00 in0.0 mm 0.00 in0.0 mm 0.00 in0.0 mm
07:10 AM 44.0°F6.7°C 44.1°F6.7°C 78% 6.5 mph W10.5 kmh W 6.5 mph10.5 kmh 29.62 in1003.0 mb 0.00 in0.0 mm 0.00 in0.0 mm 0.00 in0.0 mm
07:13 AM 44.3°F6.8°C 44.0°F6.7°C 78% 7.2 mph WSW11.6 kmh WSW 7.2 mph11.6 kmh 29.62 in1003.0 mb 0.00 in0.0 mm 0.00 in0.0 mm 0.00 in0.0 mm
07:16 AM 44.2°F6.8°C 44.4°F6.9°C 78% 4.8 mph SW7.7 kmh SW 4.8 mph7.7 kmh 29.62 in1003.0 mb 0.00 in0.0 mm 0.00 in0.0 mm 0.00 in0.0 mm
07:19 AM 44.2°F6.8°C 44.3°F6.8°C 79% 6.5 mph W10.5 kmh W 6.5 mph10.5 kmh 29.62 in1003.0 mb 0.00 in0.0 mm 0.00 in0.0 mm 0.00 in0.0 mm
07:22 AM 44.0°F6.7°C 43.9°F6.6°C 79% 8.9 mph NNW14.3 kmh NNW 9.0 mph14.5 kmh 29.62 in1003.0 mb 0.00 in0.0 mm 0.00 in0.0 mm 0.00 in0.0 mm
07:25 AM 43.9°F6.6°C 44.2°F6.8°C 79% 2.4 mph SW3.9 kmh SW 2.4 mph3.9 kmh 29.63 in1003.4 mb 0.00 in0.0 mm 0.00 in0.0 mm 0.00 in0.0 mm
07:28 AM 43.8°F6.6°C 44.0°F6.7°C 78% 9.1 mph NW14.6 kmh NW 9.2 mph14.8 kmh 29.63 in1003.4 mb 0.00 in0.0 mm 0.00 in0.0 mm 0.00 in0.0 mm
07:31 AM 43.9°F6.6°C 44.1°F6.7°C 79% 4.4 mph WSW7.1 kmh WSW 4.5 mph7.2 kmh 29.63 in1003.4 mb 0.00 in0.0 mm 0.00 in0.0 mm 0.00 in0.0 mm
07:34 AM 44.0°F6.7°C 44.1°F6.7°C 78% 8.0 mph NNW12.9 kmh NNW 8.0 mph12.9 kmh 29.63 in1003.4 mb 0.00 in0.0 mm 0.00 in0.0 mm 0.00 in0.0 mm
07:37 AM 43.9°F6.6°C 44.1°F6.7°C 78% 2.8 mph W4.5 kmh W 2.8 mph4.5 kmh 29.63 in1003.4 mb 0.00 in0.0 mm 0.00 in0.0 mm 0.00 in0.0 mm
07:40 AM 43.9°F6.6°C 43.9°F6.6°C 78% 7.3 mph W11.7 kmh W 7.3 mph11.7 kmh 29.63 in1003.4 mb 0.00 in0.0 mm 0.00 in0.0 mm 0.00 in0.0 mm
07:43 AM 44.0°F6.7°C 43.7°F6.5°C 77% 9.7 mph W15.6 kmh W 9.8 mph15.8 kmh 29.63 in1003.4 mb 0.00 in0.0 mm 0.00 in0.0 mm 0.00 in0.0 mm
07:46 AM 43.9°F6.6°C 43.6°F6.4°C 77% 4.4 mph WNW7.1 kmh WNW 4.4 mph7.1 kmh 29.63 in1003.4 mb 0.00 in0.0 mm 0.00 in0.0 mm 0.00 in0.0 mm
07:49 AM 43.9°F6.6°C 43.8°F6.6°C 78% 4.4 mph W7.1 kmh W 4.4 mph7.1 kmh 29.63 in1003.4 mb 0.00 in0.0 mm 0.00 in0.0 mm 0.00 in0.0 mm
07:52 AM 43.6°F6.4°C 44.3°F6.8°C 80% 6.5 mph WNW10.5 kmh WNW 6.5 mph10.5 kmh 29.64 in1003.7 mb 0.00 in0.0 mm 0.00 in0.0 mm 0.00 in0.0 mm
07:55 AM 43.1°F6.2°C 44.5°F6.9°C 81% 4.9 mph WNW7.9 kmh WNW 4.9 mph7.9 kmh 29.64 in1003.7 mb 0.00 in0.0 mm 0.00 in0.0 mm 0.00 in0.0 mm
07:58 AM 43.1°F6.2°C 44.8°F7.1°C 81% 1.2 mph NW1.9 kmh NW 1.2 mph1.9 kmh 29.64 in1003.7 mb 0.00 in0.0 mm 0.00 in0.0 mm 0.00 in0.0 mm
08:01 AM 43.3°F6.3°C 44.7°F7.1°C 82% 0.4 mph NNW0.6 kmh NNW 0.4 mph0.6 kmh 29.64 in1003.7 mb 0.00 in0.0 mm 0.00 in0.0 mm 0.00 in0.0 mm
08:04 AM 43.0°F6.1°C 44.5°F6.9°C 81% 3.6 mph WNW5.8 kmh WNW 3.6 mph5.8 kmh 29.64 in1003.7 mb 0.00 in0.0 mm 0.00 in0.0 mm 0.00 in0.0 mm
08:07 AM 43.0°F6.1°C 44.4°F6.9°C 81% 8.3 mph WNW13.4 kmh WNW 8.3 mph13.4 kmh 29.64 in1003.7 mb 0.00 in0.0 mm 0.00 in0.0 mm 0.00 in0.0 mm
08:10 AM 43.0°F6.1°C 43.8°F6.6°C 80% 10.5 mph 16.9 kmh 10.6 mph17.1 kmh 29.65 in1004.1 mb 0.00 in0.0 mm 0.00 in0.0 mm 0.00 in0.0 mm
08:13 AM 43.0°F6.1°C 43.3°F6.3°C 79% 4.8 mph NNW7.7 kmh NNW 4.8 mph7.7 kmh 29.65 in1004.1 mb 0.00 in0.0 mm 0.00 in0.0 mm 0.00 in0.0 mm
08:16 AM 42.9°F6.1°C 43.0°F6.1°C 78% 6.4 mph NNW10.3 kmh NNW 6.5 mph10.5 kmh 29.66 in1004.4 mb 0.00 in0.0 mm 0.00 in0.0 mm 0.00 in0.0 mm
08:19 AM 42.8°F6.0°C 42.8°F6.0°C 78% 6.0 mph NNW9.7 kmh NNW 6.0 mph9.7 kmh 29.66 in1004.4 mb 0.00 in0.0 mm 0.00 in0.0 mm 0.00 in0.0 mm
08:22 AM 42.8°F6.0°C 42.2°F5.7°C 76% 6.8 mph NW10.9 kmh NW 6.8 mph10.9 kmh 29.66 in1004.4 mb 0.00 in0.0 mm 0.00 in0.0 mm 0.00 in0.0 mm
08:25 AM 42.8°F6.0°C 42.8°F6.0°C 77% 2.4 mph NW3.9 kmh NW 2.4 mph3.9 kmh 29.66 in1004.4 mb 0.00 in0.0 mm 0.00 in0.0 mm 0.00 in0.0 mm
08:28 AM 42.8°F6.0°C 43.1°F6.2°C 78% 1.2 mph NW1.9 kmh NW 1.2 mph1.9 kmh 29.66 in1004.4 mb 0.00 in0.0 mm 0.00 in0.0 mm 0.00 in0.0 mm
08:31 AM 42.9°F6.1°C 43.1°F6.2°C 78% 4.4 mph WSW7.1 kmh WSW 4.4 mph7.1 kmh 29.65 in1004.1 mb 0.00 in0.0 mm 0.00 in0.0 mm 0.00 in0.0 mm
08:34 AM 42.7°F5.9°C 43.5°F6.4°C 78% 0.4 mph WNW0.6 kmh WNW 0.4 mph0.6 kmh 29.66 in1004.4 mb 0.00 in0.0 mm 0.00 in0.0 mm 0.00 in0.0 mm
08:37 AM 42.7°F5.9°C 43.5°F6.4°C 79% Calm Calm -- 29.66 in1004.4 mb 0.00 in0.0 mm 0.00 in0.0 mm 0.00 in0.0 mm
08:40 AM 42.7°F5.9°C 43.2°F6.2°C 78% 2.0 mph W3.2 kmh W 2.0 mph3.2 kmh 29.66 in1004.4 mb 0.00 in0.0 mm 0.00 in0.0 mm 0.00 in0.0 mm
08:43 AM 42.8°F6.0°C 43.4°F6.3°C 79% 6.5 mph W10.5 kmh W 6.5 mph10.5 kmh 29.66 in1004.4 mb 0.00 in0.0 mm 0.00 in0.0 mm 0.00 in0.0 mm
08:46 AM 42.7°F5.9°C 43.3°F6.3°C 78% 4.8 mph W7.7 kmh W 4.9 mph7.9 kmh 29.66 in1004.4 mb 0.00 in0.0 mm 0.00 in0.0 mm 0.00 in0.0 mm
08:55 AM 42.8°F6.0°C 43.7°F6.5°C 80% 1.2 mph NNW1.9 kmh NNW 1.2 mph1.9 kmh 29.66 in1004.4 mb 0.00 in0.0 mm 0.00 in0.0 mm 0.00 in0.0 mm
08:58 AM 42.8°F6.0°C 43.6°F6.4°C 79% 7.3 mph WSW11.7 kmh WSW 7.3 mph11.7 kmh 29.66 in1004.4 mb 0.00 in0.0 mm 0.00 in0.0 mm 0.00 in0.0 mm
09:01 AM 42.8°F6.0°C 43.3°F6.3°C 79% 1.2 mph SW1.9 kmh SW 1.2 mph1.9 kmh 29.66 in1004.4 mb 0.00 in0.0 mm 0.00 in0.0 mm 0.00 in0.0 mm
09:04 AM 42.8°F6.0°C 43.7°F6.5°C 80% 3.2 mph NNW5.1 kmh NNW 3.3 mph5.3 kmh 29.66 in1004.4 mb 0.00 in0.0 mm 0.00 in0.0 mm 0.00 in0.0 mm
09:07 AM 42.7°F5.9°C 43.9°F6.6°C 81% Calm Calm -- 29.67 in1004.7 mb 0.00 in0.0 mm 0.00 in0.0 mm 0.00 in0.0 mm
09:13 AM 42.0°F5.6°C 44.1°F6.7°C 83% 7.3 mph W11.7 kmh W 7.3 mph11.7 kmh 29.68 in1005.1 mb 0.00 in0.0 mm 0.00 in0.0 mm 0.02 in0.5 mm
09:16 AM 40.9°F4.9°C 43.7°F6.5°C 83% 16.1 mph NW25.9 kmh NW 16.3 mph26.2 kmh 29.68 in1005.1 mb 0.00 in0.0 mm 0.00 in0.0 mm 0.04 in1.0 mm
09:19 AM 40.0°F4.4°C 43.2°F6.2°C 82% 9.1 mph NW14.6 kmh NW 9.2 mph14.8 kmh 29.68 in1005.1 mb 0.00 in0.0 mm 0.00 in0.0 mm 0.06 in1.5 mm
09:22 AM 40.0°F4.4°C 43.1°F6.2°C 82% 2.8 mph WNW4.5 kmh WNW 2.9 mph4.7 kmh 29.68 in1005.1 mb 0.00 in0.0 mm 0.00 in0.0 mm 0.06 in1.5 mm
09:25 AM 40.3°F4.6°C 43.3°F6.3°C 83% 5.3 mph WNW8.5 kmh WNW 5.3 mph8.5 kmh 29.68 in1005.1 mb 0.00 in0.0 mm 0.00 in0.0 mm 0.06 in1.5 mm
09:28 AM 40.6°F4.8°C 43.4°F6.3°C 83% 4.0 mph NW6.4 kmh NW 4.1 mph6.6 kmh 29.68 in1005.1 mb 0.00 in0.0 mm 0.00 in0.0 mm 0.06 in1.5 mm
09:31 AM 40.4°F4.7°C 43.5°F6.4°C 84% 1.6 mph W2.6 kmh W 1.6 mph2.6 kmh 29.68 in1005.1 mb 0.00 in0.0 mm 0.00 in0.0 mm 0.06 in1.5 mm
09:34 AM 40.3°F4.6°C 43.5°F6.4°C 83% 1.6 mph W2.6 kmh W 1.6 mph2.6 kmh 29.68 in1005.1 mb 0.00 in0.0 mm 0.00 in0.0 mm 0.06 in1.5 mm
09:37 AM 40.6°F4.8°C 43.5°F6.4°C 83% 0.4 mph NW0.6 kmh NW 0.4 mph0.6 kmh 29.68 in1005.1 mb 0.00 in0.0 mm 0.00 in0.0 mm 0.06 in1.5 mm
09:40 AM 40.7°F4.8°C 43.3°F6.3°C 83% 2.4 mph NNW3.9 kmh NNW 2.4 mph3.9 kmh 29.68 in1005.1 mb 0.00 in0.0 mm 0.00 in0.0 mm 0.06 in1.5 mm
09:43 AM 40.7°F4.8°C 43.4°F6.3°C 84% 0.8 mph NNW1.3 kmh NNW 0.8 mph1.3 kmh 29.68 in1005.1 mb 0.00 in0.0 mm 0.00 in0.0 mm 0.06 in1.5 mm
09:46 AM 40.6°F4.8°C 43.7°F6.5°C 84% 5.2 mph NNW8.4 kmh NNW 5.2 mph8.4 kmh 29.68 in1005.1 mb 0.00 in0.0 mm 0.00 in0.0 mm 0.06 in1.5 mm
09:49 AM 40.7°F4.8°C 43.6°F6.4°C 84% 4.4 mph W7.1 kmh W 4.5 mph7.2 kmh 29.68 in1005.1 mb 0.00 in0.0 mm 0.00 in0.0 mm 0.06 in1.5 mm
09:52 AM 40.8°F4.9°C 43.3°F6.3°C 84% 4.5 mph NNW7.2 kmh NNW 4.5 mph7.2 kmh 29.69 in1005.4 mb 0.00 in0.0 mm 0.00 in0.0 mm 0.06 in1.5 mm
09:55 AM 40.9°F4.9°C 43.3°F6.3°C 84% Calm Calm -- 29.69 in1005.4 mb 0.00 in0.0 mm 0.00 in0.0 mm 0.06 in1.5 mm
09:58 AM 41.0°F5.0°C 43.3°F6.3°C 84% 2.4 mph W3.9 kmh W 2.4 mph3.9 kmh 29.69 in1005.4 mb 0.00 in0.0 mm 0.00 in0.0 mm 0.06 in1.5 mm
10:01 AM 40.8°F4.9°C 43.5°F6.4°C 84% 2.4 mph WNW3.9 kmh WNW 2.4 mph3.9 kmh 29.69 in1005.4 mb 0.00 in0.0 mm 0.00 in0.0 mm 0.06 in1.5 mm
10:04 AM 40.9°F4.9°C 43.2°F6.2°C 84% 4.0 mph WNW6.4 kmh WNW 4.1 mph6.6 kmh 29.69 in1005.4 mb 0.00 in0.0 mm 0.00 in0.0 mm 0.06 in1.5 mm
10:07 AM 40.8°F4.9°C 43.4°F6.3°C 84% 2.0 mph NW3.2 kmh NW 2.0 mph3.2 kmh 29.69 in1005.4 mb 0.00 in0.0 mm 0.00 in0.0 mm 0.06 in1.5 mm
10:10 AM 40.8°F4.9°C 43.3°F6.3°C 84% 4.1 mph W6.6 kmh W 4.1 mph6.6 kmh 29.69 in1005.4 mb 0.00 in0.0 mm 0.00 in0.0 mm 0.06 in1.5 mm
10:13 AM 40.8°F4.9°C 43.3°F6.3°C 84% 6.9 mph W11.1 kmh W 6.9 mph11.1 kmh 29.68 in1005.1 mb 0.00 in0.0 mm 0.00 in0.0 mm 0.06 in1.5 mm
10:16 AM 40.9°F4.9°C 43.3°F6.3°C 84% 7.3 mph WSW11.7 kmh WSW 7.3 mph11.7 kmh 29.68 in1005.1 mb 0.00 in0.0 mm 0.00 in0.0 mm 0.06 in1.5 mm
10:19 AM 41.2°F5.1°C 43.3°F6.3°C 84% 4.0 mph NNW6.4 kmh NNW 4.0 mph6.4 kmh 29.69 in1005.4 mb 0.00 in0.0 mm 0.00 in0.0 mm 0.06 in1.5 mm
10:22 AM 40.9°F4.9°C 43.3°F6.3°C 84% 5.3 mph NNW8.5 kmh NNW 5.3 mph8.5 kmh 29.69 in1005.4 mb 0.00 in0.0 mm 0.00 in0.0 mm 0.06 in1.5 mm
10:25 AM 41.0°F5.0°C 43.4°F6.3°C 84% 3.2 mph WSW5.1 kmh WSW 3.3 mph5.3 kmh 29.70 in1005.8 mb 0.00 in0.0 mm 0.00 in0.0 mm 0.06 in1.5 mm
10:28 AM 41.1°F5.1°C 43.3°F6.3°C 84% 4.4 mph W7.1 kmh W 4.5 mph7.2 kmh 29.70 in1005.8 mb 0.00 in0.0 mm 0.00 in0.0 mm 0.06 in1.5 mm
10:31 AM 41.1°F5.1°C 43.2°F6.2°C 84% 4.9 mph NNW7.9 kmh NNW 4.9 mph7.9 kmh 29.70 in1005.8 mb 0.00 in0.0 mm 0.00 in0.0 mm 0.06 in1.5 mm
10:34 AM 41.0°F5.0°C 42.8°F6.0°C 83% 4.4 mph W7.1 kmh W 4.4 mph7.1 kmh 29.70 in1005.8 mb 0.00 in0.0 mm 0.00 in0.0 mm 0.06 in1.5 mm
10:37 AM 41.0°F5.0°C 43.1°F6.2°C 84% 3.6 mph W5.8 kmh W 3.7 mph6.0 kmh 29.70 in1005.8 mb 0.00 in0.0 mm 0.00 in0.0 mm 0.06 in1.5 mm
10:40 AM 41.0°F5.0°C 43.2°F6.2°C 84% 5.2 mph WNW8.4 kmh WNW 5.2 mph8.4 kmh 29.70 in1005.8 mb 0.00 in0.0 mm 0.00 in0.0 mm 0.06 in1.5 mm
10:43 AM 41.1°F5.1°C 43.3°F6.3°C 84% 7.3 mph W11.7 kmh W 7.3 mph11.7 kmh 29.70 in1005.8 mb 0.00 in0.0 mm 0.00 in0.0 mm 0.06 in1.5 mm
10:46 AM 41.0°F5.0°C 43.1°F6.2°C 83% 7.6 mph WNW12.2 kmh WNW 7.6 mph12.2 kmh 29.70 in1005.8 mb 0.00 in0.0 mm 0.00 in0.0 mm 0.06 in1.5 mm
10:49 AM 40.9°F4.9°C 42.9°F6.1°C 83% 2.4 mph WNW3.9 kmh WNW 2.4 mph3.9 kmh 29.71 in1006.1 mb 0.00 in0.0 mm 0.00 in0.0 mm 0.06 in1.5 mm
10:52 AM 40.8°F4.9°C 43.2°F6.2°C 84% 5.3 mph W8.5 kmh W 5.3 mph8.5 kmh 29.70 in1005.8 mb 0.00 in0.0 mm 0.00 in0.0 mm 0.06 in1.5 mm
10:55 AM 40.8°F4.9°C 43.1°F6.2°C 84% 3.6 mph NNW5.8 kmh NNW 3.6 mph5.8 kmh 29.70 in1005.8 mb 0.00 in0.0 mm 0.00 in0.0 mm 0.06 in1.5 mm
10:58 AM 40.8°F4.9°C 43.1°F6.2°C 83% 4.0 mph WNW6.4 kmh WNW 4.1 mph6.6 kmh 29.71 in1006.1 mb 0.00 in0.0 mm 0.00 in0.0 mm 0.06 in1.5 mm
11:01 AM 41.0°F5.0°C 43.7°F6.5°C 85% 3.2 mph WNW5.1 kmh WNW 3.3 mph5.3 kmh 29.71 in1006.1 mb 0.00 in0.0 mm 0.00 in0.0 mm 0.06 in1.5 mm
11:04 AM 41.0°F5.0°C 43.2°F6.2°C 84% 4.0 mph W6.4 kmh W 4.1 mph6.6 kmh 29.70 in1005.8 mb 0.00 in0.0 mm 0.00 in0.0 mm 0.06 in1.5 mm
11:07 AM 40.9°F4.9°C 43.1°F6.2°C 84% 4.5 mph NNW7.2 kmh NNW 4.5 mph7.2 kmh 29.71 in1006.1 mb 0.00 in0.0 mm 0.00 in0.0 mm 0.06 in1.5 mm
11:13 AM 41.1°F5.1°C 42.8°F6.0°C 84% 4.8 mph W7.7 kmh W 4.9 mph7.9 kmh 29.71 in1006.1 mb 0.00 in0.0 mm 0.00 in0.0 mm 0.06 in1.5 mm
11:16 AM 41.2°F5.1°C 43.3°F6.3°C 85% 2.0 mph WNW3.2 kmh WNW 2.0 mph3.2 kmh 29.71 in1006.1 mb 0.00 in0.0 mm 0.00 in0.0 mm 0.06 in1.5 mm
11:19 AM 41.3°F5.2°C 43.1°F6.2°C 84% 5.3 mph NNW8.5 kmh NNW 5.3 mph8.5 kmh 29.71 in1006.1 mb 0.00 in0.0 mm 0.00 in0.0 mm 0.06 in1.5 mm
11:22 AM 41.2°F5.1°C 43.4°F6.3°C 84% 3.6 mph WSW5.8 kmh WSW 3.7 mph6.0 kmh 29.71 in1006.1 mb 0.00 in0.0 mm 0.00 in0.0 mm 0.06 in1.5 mm
11:25 AM 41.3°F5.2°C 43.1°F6.2°C 83% 6.4 mph NW10.3 kmh NW 6.5 mph10.5 kmh 29.71 in1006.1 mb 0.00 in0.0 mm 0.00 in0.0 mm 0.06 in1.5 mm
11:28 AM 41.6°F5.3°C 42.9°F6.1°C 83% 3.6 mph WNW5.8 kmh WNW 3.6 mph5.8 kmh 29.70 in1005.8 mb 0.00 in0.0 mm 0.00 in0.0 mm 0.06 in1.5 mm
11:31 AM 41.6°F5.3°C 43.2°F6.2°C 84% 3.6 mph NNW5.8 kmh NNW 3.7 mph6.0 kmh 29.70 in1005.8 mb 0.00 in0.0 mm 0.00 in0.0 mm 0.06 in1.5 mm
11:34 AM 41.7°F5.4°C 43.3°F6.3°C 84% 2.8 mph NNW4.5 kmh NNW 2.8 mph4.5 kmh 29.70 in1005.8 mb 0.00 in0.0 mm 0.00 in0.0 mm 0.06 in1.5 mm
11:37 AM 41.6°F5.3°C 43.3°F6.3°C 84% 2.4 mph WSW3.9 kmh WSW 2.4 mph3.9 kmh 29.70 in1005.8 mb 0.00 in0.0 mm 0.00 in0.0 mm 0.06 in1.5 mm
11:40 AM 41.6°F5.3°C 43.3°F6.3°C 84% 4.1 mph NW6.6 kmh NW 4.1 mph6.6 kmh 29.70 in1005.8 mb 0.00 in0.0 mm 0.00 in0.0 mm 0.06 in1.5 mm
11:43 AM 41.5°F5.3°C 42.7°F5.9°C 82% 8.1 mph W13.0 kmh W 8.2 mph13.2 kmh 29.69 in1005.4 mb 0.00 in0.0 mm 0.00 in0.0 mm 0.06 in1.5 mm
11:46 AM 41.5°F5.3°C 42.7°F5.9°C 82% 8.1 mph W13.0 kmh W 8.2 mph13.2 kmh 29.70 in1005.8 mb 0.00 in0.0 mm 0.00 in0.0 mm 0.06 in1.5 mm
11:49 AM 41.5°F5.3°C 42.4°F5.8°C 81% 4.0 mph NW6.4 kmh NW 4.0 mph6.4 kmh 29.70 in1005.8 mb 0.00 in0.0 mm 0.00 in0.0 mm 0.06 in1.5 mm
11:52 AM 41.6°F5.3°C 42.5°F5.8°C 81% 4.0 mph NNW6.4 kmh NNW 4.1 mph6.6 kmh 29.69 in1005.4 mb 0.00 in0.0 mm 0.00 in0.0 mm 0.06 in1.5 mm
11:55 AM 42.0°F5.6°C 42.8°F6.0°C 82% 5.2 mph NW8.4 kmh NW 5.2 mph8.4 kmh 29.68 in1005.1 mb 0.00 in0.0 mm 0.00 in0.0 mm 0.06 in1.5 mm
11:58 AM 42.0°F5.6°C 42.8°F6.0°C 82% 3.2 mph NNW5.1 kmh NNW 3.3 mph5.3 kmh 29.68 in1005.1 mb 0.00 in0.0 mm 0.00 in0.0 mm 0.06 in1.5 mm
12:01 PM 41.8°F5.4°C 42.6°F5.9°C 81% 8.4 mph NW13.5 kmh NW 8.5 mph13.7 kmh 29.68 in1005.1 mb 0.00 in0.0 mm 0.00 in0.0 mm 0.06 in1.5 mm
12:04 PM 41.7°F5.4°C 42.6°F5.9°C 82% 3.2 mph W5.1 kmh W 3.3 mph5.3 kmh 29.68 in1005.1 mb 0.00 in0.0 mm 0.00 in0.0 mm 0.06 in1.5 mm
12:07 PM 41.6°F5.3°C 43.0°F6.1°C 82% 3.2 mph WNW5.1 kmh WNW 3.3 mph5.3 kmh 29.68 in1005.1 mb 0.00 in0.0 mm 0.00 in0.0 mm 0.06 in1.5 mm
12:10 PM 41.7°F5.4°C 42.9°F6.1°C 82% 1.2 mph NW1.9 kmh NW 1.2 mph1.9 kmh 29.68 in1005.1 mb 0.00 in0.0 mm 0.00 in0.0 mm 0.06 in1.5 mm
12:13 PM 41.7°F5.4°C 42.9°F6.1°C 82% 6.9 mph NW11.1 kmh NW 6.9 mph11.1 kmh 29.68 in1005.1 mb 0.00 in0.0 mm 0.00 in0.0 mm 0.06 in1.5 mm
12:19 PM 41.8°F5.4°C 42.9°F6.1°C 82% 4.8 mph WSW7.7 kmh WSW 4.8 mph7.7 kmh 29.68 in1005.1 mb 0.00 in0.0 mm 0.00 in0.0 mm 0.06 in1.5 mm
12:22 PM 41.9°F5.5°C 42.7°F5.9°C 82% 6.3 mph W10.1 kmh W 6.4 mph10.3 kmh 29.68 in1005.1 mb 0.00 in0.0 mm 0.00 in0.0 mm 0.06 in1.5 mm
12:28 PM 41.9°F5.5°C 42.9°F6.1°C 82% 3.6 mph NNW5.8 kmh NNW 3.7 mph6.0 kmh 29.68 in1005.1 mb 0.00 in0.0 mm 0.00 in0.0 mm 0.06 in1.5 mm
12:31 PM 41.9°F5.5°C 42.6°F5.9°C 81% 1.2 mph WNW1.9 kmh WNW 1.2 mph1.9 kmh 29.67 in1004.7 mb 0.00 in0.0 mm 0.00 in0.0 mm 0.06 in1.5 mm
12:34 PM 41.9°F5.5°C 42.8°F6.0°C 81% 6.9 mph WNW11.1 kmh WNW 6.9 mph11.1 kmh 29.67 in1004.7 mb 0.00 in0.0 mm 0.00 in0.0 mm 0.06 in1.5 mm
12:37 PM 42.0°F5.6°C 42.9°F6.1°C 82% 2.4 mph W3.9 kmh W 2.4 mph3.9 kmh 29.66 in1004.4 mb 0.00 in0.0 mm 0.00 in0.0 mm 0.06 in1.5 mm
12:40 PM 41.9°F5.5°C 42.5°F5.8°C 81% 3.2 mph W5.1 kmh W 3.3 mph5.3 kmh 29.67 in1004.7 mb 0.00 in0.0 mm 0.00 in0.0 mm 0.06 in1.5 mm
12:43 PM 42.1°F5.6°C 42.9°F6.1°C 82% 2.0 mph WNW3.2 kmh WNW 2.0 mph3.2 kmh 29.66 in1004.4 mb 0.00 in0.0 mm 0.00 in0.0 mm 0.06 in1.5 mm
12:46 PM 42.1°F5.6°C 42.9°F6.1°C 81% 9.3 mph W15.0 kmh W 9.4 mph15.1 kmh 29.66 in1004.4 mb 0.00 in0.0 mm 0.00 in0.0 mm 0.06 in1.5 mm
12:49 PM 42.6°F5.9°C 42.4°F5.8°C 80% 5.2 mph W8.4 kmh W 5.3 mph8.5 kmh 29.66 in1004.4 mb 0.00 in0.0 mm 0.00 in0.0 mm 0.06 in1.5 mm
12:52 PM 42.8°F6.0°C 42.9°F6.1°C 81% 3.6 mph WSW5.8 kmh WSW 3.7 mph6.0 kmh 29.64 in1003.7 mb 0.00 in0.0 mm 0.00 in0.0 mm 0.06 in1.5 mm
12:55 PM 42.8°F6.0°C 42.5°F5.8°C 81% 7.2 mph WNW11.6 kmh WNW 7.2 mph11.6 kmh 29.64 in1003.7 mb 0.00 in0.0 mm 0.00 in0.0 mm 0.06 in1.5 mm
12:58 PM 43.3°F6.3°C 43.1°F6.2°C 81% 7.2 mph WSW11.6 kmh WSW 7.2 mph11.6 kmh 29.64 in1003.7 mb 0.00 in0.0 mm 0.00 in0.0 mm 0.06 in1.5 mm
01:01 PM 43.5°F6.4°C 42.8°F6.0°C 81% 6.5 mph WSW10.5 kmh WSW 6.5 mph10.5 kmh 29.64 in1003.7 mb 0.00 in0.0 mm 0.00 in0.0 mm 0.06 in1.5 mm
01:04 PM 43.6°F6.4°C 42.9°F6.1°C 80% 5.3 mph NNW8.5 kmh NNW 5.3 mph8.5 kmh 29.64 in1003.7 mb 0.00 in0.0 mm 0.00 in0.0 mm 0.06 in1.5 mm
01:07 PM 44.0°F6.7°C 43.1°F6.2°C 80% 7.3 mph NW11.7 kmh NW 7.3 mph11.7 kmh 29.63 in1003.4 mb 0.00 in0.0 mm 0.00 in0.0 mm 0.06 in1.5 mm
01:10 PM 44.3°F6.8°C 43.1°F6.2°C 80% 8.9 mph W14.3 kmh W 8.9 mph14.3 kmh 29.63 in1003.4 mb 0.00 in0.0 mm 0.00 in0.0 mm 0.06 in1.5 mm
01:13 PM 44.0°F6.7°C 43.2°F6.2°C 80% 5.2 mph W8.4 kmh W 5.2 mph8.4 kmh 29.63 in1003.4 mb 0.00 in0.0 mm 0.00 in0.0 mm 0.06 in1.5 mm
01:16 PM 43.8°F6.6°C 42.8°F6.0°C 79% 8.1 mph WSW13.0 kmh WSW 8.1 mph13.0 kmh 29.63 in1003.4 mb 0.00 in0.0 mm 0.00 in0.0 mm 0.06 in1.5 mm
01:19 PM 43.6°F6.4°C 43.0°F6.1°C 79% 2.4 mph NNW3.9 kmh NNW 2.4 mph3.9 kmh 29.63 in1003.4 mb 0.00 in0.0 mm 0.00 in0.0 mm 0.06 in1.5 mm
01:22 PM 43.5°F6.4°C 42.9°F6.1°C 78% 4.8 mph W7.7 kmh W 4.9 mph7.9 kmh 29.63 in1003.4 mb 0.00 in0.0 mm 0.00 in0.0 mm 0.06 in1.5 mm
01:25 PM 43.3°F6.3°C 42.4°F5.8°C 78% 9.5 mph W15.3 kmh W 9.6 mph15.4 kmh 29.63 in1003.4 mb 0.00 in0.0 mm 0.00 in0.0 mm 0.06 in1.5 mm
01:28 PM 43.1°F6.2°C 42.5°F5.8°C 78% 3.6 mph WNW5.8 kmh WNW 3.6 mph5.8 kmh 29.63 in1003.4 mb 0.00 in0.0 mm 0.00 in0.0 mm 0.06 in1.5 mm
01:31 PM 43.1°F6.2°C 42.2°F5.7°C 77% 6.5 mph NNW10.5 kmh NNW 6.5 mph10.5 kmh 29.63 in1003.4 mb 0.00 in0.0 mm 0.00 in0.0 mm 0.06 in1.5 mm
01:34 PM 43.3°F6.3°C 41.7°F5.4°C 76% 8.1 mph NW13.0 kmh NW 8.1 mph13.0 kmh 29.63 in1003.4 mb 0.00 in0.0 mm 0.00 in0.0 mm 0.06 in1.5 mm
01:37 PM 43.3°F6.3°C 41.3°F5.2°C 75% 3.6 mph WNW5.8 kmh WNW 3.6 mph5.8 kmh 29.63 in1003.4 mb 0.00 in0.0 mm 0.00 in0.0 mm 0.06 in1.5 mm
01:40 PM 43.4°F6.3°C 41.3°F5.2°C 74% 3.2 mph SW5.1 kmh SW 3.2 mph5.1 kmh 29.63 in1003.4 mb 0.00 in0.0 mm 0.00 in0.0 mm 0.06 in1.5 mm
01:43 PM 43.4°F6.3°C 41.6°F5.3°C 75% 8.3 mph WSW13.4 kmh WSW 8.4 mph13.5 kmh 29.63 in1003.4 mb 0.00 in0.0 mm 0.00 in0.0 mm 0.06 in1.5 mm
01:46 PM 43.6°F6.4°C 41.6°F5.3°C 75% 7.3 mph NNW11.7 kmh NNW 7.4 mph11.9 kmh 29.63 in1003.4 mb 0.00 in0.0 mm 0.00 in0.0 mm 0.06 in1.5 mm
01:49 PM 44.4°F6.9°C 42.0°F5.6°C 76% 0.8 mph W1.3 kmh W 0.8 mph1.3 kmh 29.62 in1003.0 mb 0.00 in0.0 mm 0.00 in0.0 mm 0.06 in1.5 mm
01:52 PM 44.4°F6.9°C 41.4°F5.2°C 74% 6.1 mph NNW9.8 kmh NNW 6.1 mph9.8 kmh 29.62 in1003.0 mb 0.00 in0.0 mm 0.00 in0.0 mm 0.06 in1.5 mm
01:55 PM 44.5°F6.9°C 41.7°F5.4°C 74% 6.4 mph W10.3 kmh W 6.4 mph10.3 kmh 29.63 in1003.4 mb 0.00 in0.0 mm 0.00 in0.0 mm 0.06 in1.5 mm
01:58 PM 44.3°F6.8°C 41.3°F5.2°C 73% 8.0 mph NNW12.9 kmh NNW 8.0 mph12.9 kmh 29.62 in1003.0 mb 0.00 in0.0 mm 0.00 in0.0 mm 0.06 in1.5 mm
02:01 PM 43.9°F6.6°C 40.9°F4.9°C 72% 8.1 mph WSW13.0 kmh WSW 8.1 mph13.0 kmh 29.61 in1002.7 mb 0.00 in0.0 mm 0.00 in0.0 mm 0.06 in1.5 mm
02:04 PM 44.3°F6.8°C 41.3°F5.2°C 72% 4.0 mph WSW6.4 kmh WSW 4.1 mph6.6 kmh 29.61 in1002.7 mb 0.00 in0.0 mm 0.00 in0.0 mm 0.06 in1.5 mm
02:07 PM 44.4°F6.9°C 41.5°F5.3°C 73% 4.0 mph W6.4 kmh W 4.1 mph6.6 kmh 29.61 in1002.7 mb 0.00 in0.0 mm 0.00 in0.0 mm 0.06 in1.5 mm
02:10 PM 44.0°F6.7°C 41.6°F5.3°C 73% 8.1 mph WSW13.0 kmh WSW 8.1 mph13.0 kmh 29.61 in1002.7 mb 0.00 in0.0 mm 0.00 in0.0 mm 0.06 in1.5 mm
02:13 PM 43.9°F6.6°C 41.2°F5.1°C 73% 6.9 mph SSW11.1 kmh SSW 6.9 mph11.1 kmh 29.61 in1002.7 mb 0.00 in0.0 mm 0.00 in0.0 mm 0.06 in1.5 mm
02:16 PM 43.9°F6.6°C 41.6°F5.3°C 73% 7.6 mph NW12.2 kmh NW 7.7 mph12.4 kmh 29.60 in1002.4 mb 0.00 in0.0 mm 0.00 in0.0 mm 0.06 in1.5 mm
02:19 PM 43.6°F6.4°C 41.4°F5.2°C 73% 6.1 mph NNW9.8 kmh NNW 6.1 mph9.8 kmh 29.61 in1002.7 mb 0.00 in0.0 mm 0.00 in0.0 mm 0.06 in1.5 mm
02:22 PM 43.7°F6.5°C 41.5°F5.3°C 73% 7.6 mph W12.2 kmh W 7.6 mph12.2 kmh 29.60 in1002.4 mb 0.00 in0.0 mm 0.00 in0.0 mm 0.06 in1.5 mm
02:25 PM 43.8°F6.6°C 41.5°F5.3°C 73% 8.0 mph SW12.9 kmh SW 8.0 mph12.9 kmh 29.60 in1002.4 mb 0.00 in0.0 mm 0.00 in0.0 mm 0.06 in1.5 mm
02:28 PM 44.0°F6.7°C 41.5°F5.3°C 73% 6.9 mph W11.1 kmh W 6.9 mph11.1 kmh 29.60 in1002.4 mb 0.00 in0.0 mm 0.00 in0.0 mm 0.06 in1.5 mm
02:31 PM 44.2°F6.8°C 41.8°F5.4°C 74% 6.5 mph WSW10.5 kmh WSW 6.5 mph10.5 kmh 29.60 in1002.4 mb 0.00 in0.0 mm 0.00 in0.0 mm 0.06 in1.5 mm
02:34 PM 43.7°F6.5°C 41.7°F5.4°C 73% 8.0 mph W12.9 kmh W 8.0 mph12.9 kmh 29.60 in1002.4 mb 0.00 in0.0 mm 0.00 in0.0 mm 0.06 in1.5 mm
02:37 PM 43.5°F6.4°C 41.3°F5.2°C 72% 9.3 mph WNW15.0 kmh WNW 9.3 mph15.0 kmh 29.60 in1002.4 mb 0.00 in0.0 mm 0.00 in0.0 mm 0.06 in1.5 mm
02:40 PM 43.3°F6.3°C 41.3°F5.2°C 72% 2.4 mph WSW3.9 kmh WSW 2.4 mph3.9 kmh 29.60 in1002.4 mb 0.00 in0.0 mm 0.00 in0.0 mm 0.06 in1.5 mm
02:43 PM 42.9°F6.1°C 40.8°F4.9°C 72% 3.6 mph W5.8 kmh W 3.7 mph6.0 kmh 29.60 in1002.4 mb 0.00 in0.0 mm 0.00 in0.0 mm 0.06 in1.5 mm
02:49 PM 42.6°F5.9°C 40.9°F4.9°C 72% 6.1 mph W9.8 kmh W 6.1 mph9.8 kmh 29.60 in1002.4 mb 0.00 in0.0 mm 0.00 in0.0 mm 0.06 in1.5 mm
02:52 PM 42.4°F5.8°C 40.8°F4.9°C 72% 8.9 mph WNW14.3 kmh WNW 9.0 mph14.5 kmh 29.60 in1002.4 mb 0.00 in0.0 mm 0.00 in0.0 mm 0.06 in1.5 mm
02:55 PM 42.4°F5.8°C 40.8°F4.9°C 72% 5.2 mph SW8.4 kmh SW 5.3 mph8.5 kmh 29.60 in1002.4 mb 0.00 in0.0 mm 0.00 in0.0 mm 0.06 in1.5 mm
02:58 PM 42.4°F5.8°C 40.7°F4.8°C 72% 4.0 mph NNW6.4 kmh NNW 4.1 mph6.6 kmh 29.60 in1002.4 mb 0.00 in0.0 mm 0.00 in0.0 mm 0.06 in1.5 mm
03:01 PM 42.1°F5.6°C 40.7°F4.8°C 73% 6.0 mph W9.7 kmh W 6.0 mph9.7 kmh 29.59 in1002.0 mb 0.00 in0.0 mm 0.00 in0.0 mm 0.06 in1.5 mm
03:04 PM 42.4°F5.8°C 40.8°F4.9°C 73% 8.1 mph W13.0 kmh W 8.1 mph13.0 kmh 29.59 in1002.0 mb 0.00 in0.0 mm 0.00 in0.0 mm 0.06 in1.5 mm
03:07 PM 42.5°F5.8°C 41.0°F5.0°C 73% 0.4 mph NW0.6 kmh NW 0.4 mph0.6 kmh 29.59 in1002.0 mb 0.00 in0.0 mm 0.00 in0.0 mm 0.06 in1.5 mm
03:10 PM 42.7°F5.9°C 40.5°F4.7°C 72% 10.1 mph WSW16.3 kmh WSW 10.1 mph16.3 kmh 29.59 in1002.0 mb 0.00 in0.0 mm 0.00 in0.0 mm 0.06 in1.5 mm
03:13 PM 42.7°F5.9°C 40.1°F4.5°C 72% 9.7 mph WSW15.6 kmh WSW 9.8 mph15.8 kmh 29.59 in1002.0 mb 0.00 in0.0 mm 0.00 in0.0 mm 0.06 in1.5 mm
03:16 PM 42.9°F6.1°C 40.4°F4.7°C 72% 6.0 mph NNW9.7 kmh NNW 6.0 mph9.7 kmh 29.59 in1002.0 mb 0.00 in0.0 mm 0.00 in0.0 mm 0.06 in1.5 mm
03:19 PM 42.9°F6.1°C 40.6°F4.8°C 72% 5.3 mph NNW8.5 kmh NNW 5.3 mph8.5 kmh 29.60 in1002.4 mb 0.00 in0.0 mm 0.00 in0.0 mm 0.06 in1.5 mm
03:22 PM 43.1°F6.2°C 40.6°F4.8°C 72% 4.9 mph SW7.9 kmh SW 4.9 mph7.9 kmh 29.59 in1002.0 mb 0.00 in0.0 mm 0.00 in0.0 mm 0.06 in1.5 mm
03:28 PM 43.0°F6.1°C 40.4°F4.7°C 72% 3.2 mph SW5.1 kmh SW 3.3 mph5.3 kmh 29.60 in1002.4 mb 0.00 in0.0 mm 0.00 in0.0 mm 0.06 in1.5 mm
03:31 PM 42.7°F5.9°C 40.4°F4.7°C 72% 7.7 mph WSW12.4 kmh WSW 7.7 mph12.4 kmh 29.59 in1002.0 mb 0.00 in0.0 mm 0.00 in0.0 mm 0.06 in1.5 mm
03:34 PM 42.7°F5.9°C 40.3°F4.6°C 72% 6.9 mph W11.1 kmh W 6.9 mph11.1 kmh 29.60 in1002.4 mb 0.00 in0.0 mm 0.00 in0.0 mm 0.06 in1.5 mm
03:37 PM 42.6°F5.9°C 40.8°F4.9°C 73% Calm Calm -- 29.59 in1002.0 mb 0.00 in0.0 mm 0.00 in0.0 mm 0.06 in1.5 mm
03:40 PM 42.6°F5.9°C 40.4°F4.7°C 72% 6.5 mph NNW10.5 kmh NNW 6.5 mph10.5 kmh 29.59 in1002.0 mb 0.00 in0.0 mm 0.00 in0.0 mm 0.06 in1.5 mm
03:43 PM 42.5°F5.8°C 40.9°F4.9°C 73% 4.0 mph NNW6.4 kmh NNW 4.0 mph6.4 kmh 29.59 in1002.0 mb 0.00 in0.0 mm 0.00 in0.0 mm 0.06 in1.5 mm
03:46 PM 42.5°F5.8°C 40.7°F4.8°C 73% 4.4 mph NNW7.1 kmh NNW 4.5 mph7.2 kmh 29.60 in1002.4 mb 0.00 in0.0 mm 0.00 in0.0 mm 0.06 in1.5 mm
03:49 PM 42.4°F5.8°C 40.8°F4.9°C 73% 2.0 mph SW3.2 kmh SW 2.0 mph3.2 kmh 29.59 in1002.0 mb 0.00 in0.0 mm 0.00 in0.0 mm 0.06 in1.5 mm
03:52 PM 42.0°F5.6°C 40.8°F4.9°C 73% Calm Calm -- 29.59 in1002.0 mb 0.00 in0.0 mm 0.00 in0.0 mm 0.06 in1.5 mm
03:55 PM 41.7°F5.4°C 40.6°F4.8°C 73% Calm Calm -- 29.59 in1002.0 mb 0.00 in0.0 mm 0.00 in0.0 mm 0.06 in1.5 mm
03:58 PM 41.7°F5.4°C 40.6°F4.8°C 73% 2.8 mph WSW4.5 kmh WSW 2.9 mph4.7 kmh 29.58 in1001.7 mb 0.00 in0.0 mm 0.00 in0.0 mm 0.06 in1.5 mm
04:01 PM 41.6°F5.3°C 40.6°F4.8°C 73% 1.2 mph SW1.9 kmh SW 1.2 mph1.9 kmh 29.59 in1002.0 mb 0.00 in0.0 mm 0.00 in0.0 mm 0.06 in1.5 mm
04:04 PM 41.7°F5.4°C 40.7°F4.8°C 73% 2.0 mph WSW3.2 kmh WSW 2.0 mph3.2 kmh 29.59 in1002.0 mb 0.00 in0.0 mm 0.00 in0.0 mm 0.06 in1.5 mm
04:07 PM 41.8°F5.4°C 40.5°F4.7°C 73% 2.0 mph W3.2 kmh W 2.0 mph3.2 kmh 29.59 in1002.0 mb 0.00 in0.0 mm 0.00 in0.0 mm 0.06 in1.5 mm
04:10 PM 41.7°F5.4°C 40.8°F4.9°C 74% 3.6 mph W5.8 kmh W 3.7 mph6.0 kmh 29.58 in1001.7 mb 0.00 in0.0 mm 0.00 in0.0 mm 0.06 in1.5 mm
04:13 PM 41.5°F5.3°C 40.7°F4.8°C 74% 4.0 mph NNW6.4 kmh NNW 4.1 mph6.6 kmh 29.58 in1001.7 mb 0.00 in0.0 mm 0.00 in0.0 mm 0.06 in1.5 mm
04:16 PM 41.6°F5.3°C 40.7°F4.8°C 74% 3.2 mph WSW5.1 kmh WSW 3.3 mph5.3 kmh 29.58 in1001.7 mb 0.00 in0.0 mm 0.00 in0.0 mm 0.06 in1.5 mm
04:19 PM 41.6°F5.3°C 40.4°F4.7°C 73% 6.1 mph WSW9.8 kmh WSW 6.1 mph9.8 kmh 29.58 in1001.7 mb 0.00 in0.0 mm 0.00 in0.0 mm 0.06 in1.5 mm
04:22 PM 41.3°F5.2°C 40.6°F4.8°C 73% 1.6 mph WSW2.6 kmh WSW 1.6 mph2.6 kmh 29.58 in1001.7 mb 0.00 in0.0 mm 0.00 in0.0 mm 0.06 in1.5 mm
04:25 PM 40.8°F4.9°C 40.5°F4.7°C 73% 2.8 mph WSW4.5 kmh WSW 2.8 mph4.5 kmh 29.57 in1001.4 mb 0.00 in0.0 mm 0.00 in0.0 mm 0.06 in1.5 mm
04:28 PM 40.6°F4.8°C 40.2°F4.6°C 73% 3.2 mph SW5.1 kmh SW 3.3 mph5.3 kmh 29.57 in1001.4 mb 0.00 in0.0 mm 0.00 in0.0 mm 0.06 in1.5 mm
04:31 PM 40.2°F4.6°C 40.0°F4.4°C 73% Calm Calm -- 29.57 in1001.4 mb 0.00 in0.0 mm 0.00 in0.0 mm 0.06 in1.5 mm
04:34 PM 40.2°F4.6°C 40.2°F4.6°C 73% 3.6 mph NNW5.8 kmh NNW 3.6 mph5.8 kmh 29.57 in1001.4 mb 0.00 in0.0 mm 0.00 in0.0 mm 0.06 in1.5 mm
04:37 PM 39.9°F4.4°C 40.1°F4.5°C 73% 3.6 mph WSW5.8 kmh WSW 3.6 mph5.8 kmh 29.57 in1001.4 mb 0.00 in0.0 mm 0.00 in0.0 mm 0.06 in1.5 mm
04:40 PM 39.5°F4.2°C 39.9°F4.4°C 73% Calm Calm -- 29.57 in1001.4 mb 0.00 in0.0 mm 0.00 in0.0 mm 0.06 in1.5 mm
04:43 PM 39.3°F4.1°C 39.8°F4.3°C 73% 3.6 mph WSW5.8 kmh WSW 3.7 mph6.0 kmh 29.57 in1001.4 mb 0.00 in0.0 mm 0.00 in0.0 mm 0.06 in1.5 mm
04:46 PM 39.2°F4.0°C 39.7°F4.3°C 73% Calm Calm -- 29.56 in1001.0 mb 0.00 in0.0 mm 0.00 in0.0 mm 0.06 in1.5 mm
04:49 PM 39.2°F4.0°C 39.6°F4.2°C 73% Calm Calm -- 29.56 in1001.0 mb 0.00 in0.0 mm 0.00 in0.0 mm 0.06 in1.5 mm
04:52 PM 39.2°F4.0°C 39.5°F4.2°C 73% 1.6 mph NNW2.6 kmh NNW 1.6 mph2.6 kmh 29.56 in1001.0 mb 0.00 in0.0 mm 0.00 in0.0 mm 0.06 in1.5 mm
04:55 PM 39.1°F3.9°C 39.4°F4.1°C 73% 2.0 mph W3.2 kmh W 2.0 mph3.2 kmh 29.56 in1001.0 mb 0.00 in0.0 mm 0.00 in0.0 mm 0.06 in1.5 mm
04:58 PM 39.3°F4.1°C 39.5°F4.2°C 74% 1.6 mph WSW2.6 kmh WSW 1.6 mph2.6 kmh 29.55 in1000.7 mb 0.00 in0.0 mm 0.00 in0.0 mm 0.06 in1.5 mm
05:01 PM 39.4°F4.1°C 39.6°F4.2°C 74% 1.2 mph WSW1.9 kmh WSW 1.2 mph1.9 kmh 29.55 in1000.7 mb 0.00 in0.0 mm 0.00 in0.0 mm 0.06 in1.5 mm
05:04 PM 39.3°F4.1°C 39.3°F4.1°C 74% 0.8 mph SW1.3 kmh SW 0.8 mph1.3 kmh 29.55 in1000.7 mb 0.00 in0.0 mm 0.00 in0.0 mm 0.06 in1.5 mm
05:07 PM 39.7°F4.3°C 39.3°F4.1°C 74% 5.0 mph WSW8.0 kmh WSW 5.1 mph8.2 kmh 29.55 in1000.7 mb 0.00 in0.0 mm 0.00 in0.0 mm 0.06 in1.5 mm
05:10 PM 39.2°F4.0°C 39.4°F4.1°C 74% 2.0 mph WNW3.2 kmh WNW 2.0 mph3.2 kmh 29.55 in1000.7 mb 0.00 in0.0 mm 0.00 in0.0 mm 0.06 in1.5 mm
05:13 PM 39.0°F3.9°C 39.4°F4.1°C 74% Calm Calm -- 29.55 in1000.7 mb 0.00 in0.0 mm 0.00 in0.0 mm 0.06 in1.5 mm
05:16 PM 39.3°F4.1°C 39.4°F4.1°C 74% 3.2 mph SW5.1 kmh SW 3.2 mph5.1 kmh 29.55 in1000.7 mb 0.00 in0.0 mm 0.00 in0.0 mm 0.06 in1.5 mm
05:19 PM 39.2°F4.0°C 39.2°F4.0°C 74% Calm Calm -- 29.55 in1000.7 mb 0.00 in0.0 mm 0.00 in0.0 mm 0.06 in1.5 mm
05:22 PM 39.2°F4.0°C 39.4°F4.1°C 74% Calm Calm -- 29.55 in1000.7 mb 0.00 in0.0 mm 0.00 in0.0 mm 0.06 in1.5 mm
05:25 PM 39.1°F3.9°C 39.6°F4.2°C 75% 2.4 mph WSW3.9 kmh WSW 2.4 mph3.9 kmh 29.55 in1000.7 mb 0.00 in0.0 mm 0.00 in0.0 mm 0.06 in1.5 mm
05:28 PM 39.1°F3.9°C 39.4°F4.1°C 74% 1.6 mph WSW2.6 kmh WSW 1.6 mph2.6 kmh 29.55 in1000.7 mb 0.00 in0.0 mm 0.00 in0.0 mm 0.06 in1.5 mm
05:31 PM 38.9°F3.8°C 39.4°F4.1°C 75% Calm Calm -- 29.55 in1000.7 mb 0.00 in0.0 mm 0.00 in0.0 mm 0.06 in1.5 mm
05:34 PM 39.1°F3.9°C 39.0°F3.9°C 74% Calm Calm -- 29.55 in1000.7 mb 0.00 in0.0 mm 0.00 in0.0 mm 0.06 in1.5 mm
05:37 PM 38.5°F3.6°C 39.3°F4.1°C 75% Calm Calm -- 29.55 in1000.7 mb 0.00 in0.0 mm 0.00 in0.0 mm 0.06 in1.5 mm
05:40 PM 38.6°F3.7°C 39.3°F4.1°C 74% Calm Calm -- 29.54 in1000.3 mb 0.00 in0.0 mm 0.00 in0.0 mm 0.06 in1.5 mm
05:43 PM 38.2°F3.4°C 39.0°F3.9°C 74% Calm Calm -- 29.54 in1000.3 mb 0.00 in0.0 mm 0.00 in0.0 mm 0.06 in1.5 mm
05:46 PM 38.4°F3.6°C 39.0°F3.9°C 74% Calm Calm -- 29.54 in1000.3 mb 0.00 in0.0 mm 0.00 in0.0 mm 0.06 in1.5 mm
05:49 PM 38.0°F3.3°C 39.2°F4.0°C 75% Calm Calm -- 29.54 in1000.3 mb 0.00 in0.0 mm 0.00 in0.0 mm 0.06 in1.5 mm
05:52 PM 38.0°F3.3°C 39.0°F3.9°C 74% 0.4 mph WSW0.6 kmh WSW 0.4 mph0.6 kmh 29.54 in1000.3 mb 0.00 in0.0 mm 0.00 in0.0 mm 0.06 in1.5 mm
05:55 PM 38.1°F3.4°C 38.8°F3.8°C 74% 0.8 mph NNW1.3 kmh NNW 0.8 mph1.3 kmh 29.54 in1000.3 mb 0.00 in0.0 mm 0.00 in0.0 mm 0.06 in1.5 mm
05:58 PM 37.9°F3.3°C 38.6°F3.7°C 74% Calm Calm -- 29.54 in1000.3 mb 0.00 in0.0 mm 0.00 in0.0 mm 0.06 in1.5 mm
06:01 PM 37.5°F3.1°C 39.0°F3.9°C 75% Calm Calm -- 29.54 in1000.3 mb 0.00 in0.0 mm 0.00 in0.0 mm 0.06 in1.5 mm
06:04 PM 37.0°F2.8°C 39.0°F3.9°C 75% Calm Calm -- 29.54 in1000.3 mb 0.00 in0.0 mm 0.00 in0.0 mm 0.06 in1.5 mm
06:07 PM 36.7°F2.6°C 38.9°F3.8°C 75% Calm Calm -- 29.54 in1000.3 mb 0.00 in0.0 mm 0.00 in0.0 mm 0.06 in1.5 mm
06:10 PM 36.5°F2.5°C 38.7°F3.7°C 75% Calm Calm -- 29.54 in1000.3 mb 0.00 in0.0 mm 0.00 in0.0 mm 0.06 in1.5 mm
06:13 PM 36.7°F2.6°C 38.5°F3.6°C 75% Calm Calm -- 29.53 in1000.0 mb 0.00 in0.0 mm 0.00 in0.0 mm 0.06 in1.5 mm
06:16 PM 36.3°F2.4°C 38.8°F3.8°C 75% Calm Calm -- 29.53 in1000.0 mb 0.00 in0.0 mm 0.00 in0.0 mm 0.06 in1.5 mm
06:19 PM 36.1°F2.3°C 38.5°F3.6°C 76% Calm Calm -- 29.53 in1000.0 mb 0.00 in0.0 mm 0.00 in0.0 mm 0.06 in1.5 mm
06:22 PM 35.6°F2.0°C 38.6°F3.7°C 76% Calm Calm -- 29.53 in1000.0 mb 0.00 in0.0 mm 0.00 in0.0 mm 0.06 in1.5 mm
06:25 PM 35.6°F2.0°C 38.5°F3.6°C 76% Calm Calm -- 29.53 in1000.0 mb 0.00 in0.0 mm 0.00 in0.0 mm 0.06 in1.5 mm
06:28 PM 35.7°F2.1°C 38.3°F3.5°C 76% Calm Calm -- 29.53 in1000.0 mb 0.00 in0.0 mm 0.00 in0.0 mm 0.06 in1.5 mm
06:31 PM 35.7°F2.1°C 38.6°F3.7°C 77% Calm Calm -- 29.52 in999.7 mb 0.00 in0.0 mm 0.00 in0.0 mm 0.06 in1.5 mm
06:34 PM 35.7°F2.1°C 38.7°F3.7°C 78% Calm Calm -- 29.52 in999.7 mb 0.00 in0.0 mm 0.00 in0.0 mm 0.06 in1.5 mm
06:37 PM 35.9°F2.2°C 38.8°F3.8°C 79% Calm Calm -- 29.52 in999.7 mb 0.00 in0.0 mm 0.00 in0.0 mm 0.06 in1.5 mm
06:40 PM 36.2°F2.3°C 38.7°F3.7°C 79% Calm Calm -- 29.52 in999.7 mb 0.00 in0.0 mm 0.00 in0.0 mm 0.06 in1.5 mm
06:43 PM 36.4°F2.4°C 39.1°F3.9°C 81% Calm Calm -- 29.52 in999.7 mb 0.00 in0.0 mm 0.00 in0.0 mm 0.06 in1.5 mm
06:46 PM 36.6°F2.6°C 39.0°F3.9°C 81% Calm Calm -- 29.52 in999.7 mb 0.00 in0.0 mm 0.00 in0.0 mm 0.06 in1.5 mm
06:49 PM 36.7°F2.6°C 39.0°F3.9°C 81% Calm Calm -- 29.52 in999.7 mb 0.00 in0.0 mm 0.00 in0.0 mm 0.06 in1.5 mm
06:52 PM 36.6°F2.6°C 39.2°F4.0°C 80% Calm Calm -- 29.52 in999.7 mb 0.00 in0.0 mm 0.00 in0.0 mm 0.06 in1.5 mm
06:55 PM 37.2°F2.9°C 39.0°F3.9°C 80% Calm Calm -- 29.52 in999.7 mb 0.00 in0.0 mm 0.00 in0.0 mm 0.06 in1.5 mm
06:58 PM 37.1°F2.8°C 39.0°F3.9°C 80% Calm Calm -- 29.52 in999.7 mb 0.00 in0.0 mm 0.00 in0.0 mm 0.06 in1.5 mm
07:01 PM 37.4°F3.0°C 39.0°F3.9°C 80% Calm Calm -- 29.52 in999.7 mb 0.00 in0.0 mm 0.00 in0.0 mm 0.06 in1.5 mm
07:04 PM 37.4°F3.0°C 39.3°F4.1°C 80% Calm Calm -- 29.52 in999.7 mb 0.00 in0.0 mm 0.00 in0.0 mm 0.06 in1.5 mm
07:07 PM 37.5°F3.1°C 39.2°F4.0°C 81% Calm Calm -- 29.52 in999.7 mb 0.00 in0.0 mm 0.00 in0.0 mm 0.06 in1.5 mm
07:10 PM 37.7°F3.2°C 39.2°F4.0°C 80% Calm Calm -- 29.51 in999.3 mb 0.00 in0.0 mm 0.00 in0.0 mm 0.06 in1.5 mm
07:13 PM 38.1°F3.4°C 39.3°F4.1°C 81% Calm Calm -- 29.51 in999.3 mb 0.00 in0.0 mm 0.00 in0.0 mm 0.06 in1.5 mm
07:16 PM 38.2°F3.4°C 39.1°F3.9°C 79% Calm Calm -- 29.51 in999.3 mb 0.00 in0.0 mm 0.00 in0.0 mm 0.06 in1.5 mm
07:19 PM 38.1°F3.4°C 39.2°F4.0°C 80% Calm Calm -- 29.51 in999.3 mb 0.00 in0.0 mm 0.00 in0.0 mm 0.06 in1.5 mm
07:22 PM 37.7°F3.2°C 39.3°F4.1°C 79% Calm Calm -- 29.50 in999.0 mb 0.00 in0.0 mm 0.00 in0.0 mm 0.06 in1.5 mm
07:25 PM 37.6°F3.1°C 39.5°F4.2°C 80% Calm Calm -- 29.50 in999.0 mb 0.00 in0.0 mm 0.00 in0.0 mm 0.06 in1.5 mm
07:28 PM 37.9°F3.3°C 39.2°F4.0°C 79% Calm Calm -- 29.50 in999.0 mb 0.00 in0.0 mm 0.00 in0.0 mm 0.06 in1.5 mm
07:31 PM 37.9°F3.3°C 38.8°F3.8°C 78% Calm Calm -- 29.50 in999.0 mb 0.00 in0.0 mm 0.00 in0.0 mm 0.06 in1.5 mm
07:34 PM 37.6°F3.1°C 38.7°F3.7°C 78% Calm Calm -- 29.50 in999.0 mb 0.00 in0.0 mm 0.00 in0.0 mm 0.06 in1.5 mm
07:37 PM 37.7°F3.2°C 39.2°F4.0°C 80% Calm Calm -- 29.50 in999.0 mb 0.00 in0.0 mm 0.00 in0.0 mm 0.06 in1.5 mm
07:40 PM 38.0°F3.3°C 39.1°F3.9°C 80% Calm Calm -- 29.50 in999.0 mb 0.00 in0.0 mm 0.00 in0.0 mm 0.06 in1.5 mm
07:43 PM 38.3°F3.5°C 39.0°F3.9°C 80% Calm Calm -- 29.50 in999.0 mb 0.00 in0.0 mm 0.00 in0.0 mm 0.06 in1.5 mm
07:46 PM 38.6°F3.7°C 39.0°F3.9°C 80% 2.8 mph SE4.5 kmh SE 2.8 mph4.5 kmh 29.50 in999.0 mb 0.00 in0.0 mm 0.00 in0.0 mm 0.06 in1.5 mm
07:49 PM 38.8°F3.8°C 39.3°F4.1°C 80% 3.6 mph SSE5.8 kmh SSE 3.7 mph6.0 kmh 29.50 in999.0 mb 0.00 in0.0 mm 0.00 in0.0 mm 0.06 in1.5 mm
07:52 PM 39.1°F3.9°C 38.7°F3.7°C 79% 3.6 mph SSE5.8 kmh SSE 3.7 mph6.0 kmh 29.49 in998.6 mb 0.00 in0.0 mm 0.00 in0.0 mm 0.06 in1.5 mm
07:55 PM 38.9°F3.8°C 39.1°F3.9°C 80% 2.0 mph NNW3.2 kmh NNW 2.0 mph3.2 kmh 29.50 in999.0 mb 0.00 in0.0 mm 0.00 in0.0 mm 0.06 in1.5 mm
07:58 PM 38.9°F3.8°C 39.4°F4.1°C 80% 4.0 mph SE6.4 kmh SE 4.0 mph6.4 kmh 29.50 in999.0 mb 0.00 in0.0 mm 0.00 in0.0 mm 0.06 in1.5 mm
08:01 PM 39.0°F3.9°C 39.0°F3.9°C 79% 2.0 mph NNW3.2 kmh NNW 2.0 mph3.2 kmh 29.50 in999.0 mb 0.00 in0.0 mm 0.00 in0.0 mm 0.06 in1.5 mm
08:04 PM 38.9°F3.8°C 39.4°F4.1°C 80% 2.8 mph SE4.5 kmh SE 2.8 mph4.5 kmh 29.50 in999.0 mb 0.00 in0.0 mm 0.00 in0.0 mm 0.06 in1.5 mm
08:07 PM 38.9°F3.8°C 39.2°F4.0°C 80% 3.6 mph SE5.8 kmh SE 3.7 mph6.0 kmh 29.49 in998.6 mb 0.00 in0.0 mm 0.00 in0.0 mm 0.06 in1.5 mm
08:10 PM 39.0°F3.9°C 39.3°F4.1°C 80% 4.8 mph SSE7.7 kmh SSE 4.9 mph7.9 kmh 29.49 in998.6 mb 0.00 in0.0 mm 0.00 in0.0 mm 0.06 in1.5 mm
08:13 PM 39.1°F3.9°C 39.3°F4.1°C 80% Calm Calm -- 29.50 in999.0 mb 0.00 in0.0 mm 0.00 in0.0 mm 0.06 in1.5 mm
08:16 PM 38.9°F3.8°C 39.4°F4.1°C 80% 2.0 mph S3.2 kmh S 2.0 mph3.2 kmh 29.50 in999.0 mb 0.00 in0.0 mm 0.00 in0.0 mm 0.06 in1.5 mm
08:19 PM 38.9°F3.8°C 39.5°F4.2°C 81% Calm Calm -- 29.50 in999.0 mb 0.00 in0.0 mm 0.00 in0.0 mm 0.06 in1.5 mm
08:22 PM 39.1°F3.9°C 39.6°F4.2°C 80% Calm Calm -- 29.50 in999.0 mb 0.00 in0.0 mm 0.00 in0.0 mm 0.06 in1.5 mm
08:25 PM 39.2°F4.0°C 39.3°F4.1°C 79% Calm Calm -- 29.50 in999.0 mb 0.00 in0.0 mm 0.00 in0.0 mm 0.06 in1.5 mm
08:28 PM 39.1°F3.9°C 39.5°F4.2°C 79% Calm Calm -- 29.50 in999.0 mb 0.00 in0.0 mm 0.00 in0.0 mm 0.06 in1.5 mm
08:31 PM 39.2°F4.0°C 39.4°F4.1°C 79% Calm Calm -- 29.50 in999.0 mb 0.00 in0.0 mm 0.00 in0.0 mm 0.06 in1.5 mm
08:34 PM 39.4°F4.1°C 39.3°F4.1°C 79% 1.2 mph SSE1.9 kmh SSE 1.2 mph1.9 kmh 29.50 in999.0 mb 0.00 in0.0 mm 0.00 in0.0 mm 0.06 in1.5 mm
08:37 PM 39.3°F4.1°C 39.4°F4.1°C 79% Calm Calm -- 29.50 in999.0 mb 0.00 in0.0 mm 0.00 in0.0 mm 0.06 in1.5 mm
08:40 PM 39.4°F4.1°C 39.6°F4.2°C 79% 0.4 mph S0.6 kmh S 0.4 mph0.6 kmh 29.50 in999.0 mb 0.00 in0.0 mm 0.00 in0.0 mm 0.06 in1.5 mm
08:43 PM 39.3°F4.1°C 39.4°F4.1°C 79% Calm Calm -- 29.49 in998.6 mb 0.00 in0.0 mm 0.00 in0.0 mm 0.06 in1.5 mm
08:46 PM 39.4°F4.1°C 39.3°F4.1°C 79% 3.6 mph SSE5.8 kmh SSE 3.7 mph6.0 kmh 29.50 in999.0 mb 0.00 in0.0 mm 0.00 in0.0 mm 0.06 in1.5 mm
08:49 PM 39.3°F4.1°C 39.7°F4.3°C 79% 0.8 mph SW1.3 kmh SW 0.8 mph1.3 kmh 29.50 in999.0 mb 0.00 in0.0 mm 0.00 in0.0 mm 0.06 in1.5 mm
08:52 PM 39.0°F3.9°C 39.9°F4.4°C 80% Calm Calm -- 29.50 in999.0 mb 0.00 in0.0 mm 0.00 in0.0 mm 0.06 in1.5 mm
08:55 PM 39.4°F4.1°C 39.8°F4.3°C 81% 6.1 mph SW9.8 kmh SW 6.1 mph9.8 kmh 29.49 in998.6 mb 0.00 in0.0 mm 0.00 in0.0 mm 0.06 in1.5 mm
08:58 PM 39.0°F3.9°C 40.3°F4.6°C 82% 4.0 mph NNW6.4 kmh NNW 4.1 mph6.6 kmh 29.49 in998.6 mb 0.00 in0.0 mm 0.00 in0.0 mm 0.06 in1.5 mm
09:01 PM 39.1°F3.9°C 40.1°F4.5°C 82% 7.2 mph WSW11.6 kmh WSW 7.2 mph11.6 kmh 29.49 in998.6 mb 0.00 in0.0 mm 0.00 in0.0 mm 0.06 in1.5 mm
09:04 PM 39.0°F3.9°C 40.2°F4.6°C 82% 4.9 mph SW7.9 kmh SW 4.9 mph7.9 kmh 29.49 in998.6 mb 0.00 in0.0 mm 0.00 in0.0 mm 0.06 in1.5 mm
09:07 PM 38.9°F3.8°C 40.4°F4.7°C 83% Calm Calm -- 29.49 in998.6 mb 0.00 in0.0 mm 0.00 in0.0 mm 0.06 in1.5 mm
09:10 PM 38.8°F3.8°C 40.5°F4.7°C 83% Calm Calm -- 29.48 in998.3 mb 0.00 in0.0 mm 0.00 in0.0 mm 0.06 in1.5 mm
09:13 PM 38.8°F3.8°C 40.5°F4.7°C 83% 0.4 mph S0.6 kmh S 0.4 mph0.6 kmh 29.48 in998.3 mb 0.00 in0.0 mm 0.00 in0.0 mm 0.06 in1.5 mm
09:16 PM 38.8°F3.8°C 40.2°F4.6°C 82% Calm Calm -- 29.48 in998.3 mb 0.00 in0.0 mm 0.00 in0.0 mm 0.06 in1.5 mm
09:19 PM 38.6°F3.7°C 40.5°F4.7°C 83% Calm Calm -- 29.48 in998.3 mb 0.00 in0.0 mm 0.00 in0.0 mm 0.06 in1.5 mm
09:22 PM 38.6°F3.7°C 40.7°F4.8°C 83% 2.8 mph S4.5 kmh S 2.8 mph4.5 kmh 29.48 in998.3 mb 0.00 in0.0 mm 0.00 in0.0 mm 0.06 in1.5 mm
09:25 PM 38.5°F3.6°C 40.7°F4.8°C 84% 0.4 mph NNW0.6 kmh NNW 0.4 mph0.6 kmh 29.48 in998.3 mb 0.00 in0.0 mm 0.00 in0.0 mm 0.06 in1.5 mm
09:28 PM 38.5°F3.6°C 40.7°F4.8°C 84% Calm Calm -- 29.47 in998.0 mb 0.00 in0.0 mm 0.00 in0.0 mm 0.06 in1.5 mm
09:31 PM 38.5°F3.6°C 41.1°F5.1°C 85% 1.6 mph NNW2.6 kmh NNW 1.6 mph2.6 kmh 29.48 in998.3 mb 0.00 in0.0 mm 0.00 in0.0 mm 0.06 in1.5 mm
09:34 PM 38.4°F3.6°C 41.0°F5.0°C 85% Calm Calm -- 29.48 in998.3 mb 0.00 in0.0 mm 0.00 in0.0 mm 0.06 in1.5 mm
09:37 PM 38.3°F3.5°C 41.0°F5.0°C 86% 4.0 mph SE6.4 kmh SE 4.1 mph6.6 kmh 29.48 in998.3 mb 0.00 in0.0 mm 0.00 in0.0 mm 0.06 in1.5 mm
09:40 PM 38.4°F3.6°C 40.7°F4.8°C 86% 1.2 mph NNW1.9 kmh NNW 1.2 mph1.9 kmh 29.47 in998.0 mb 0.00 in0.0 mm 0.00 in0.0 mm 0.08 in2.0 mm
09:43 PM 38.3°F3.5°C 41.1°F5.1°C 87% 0.4 mph NNW0.6 kmh NNW 0.4 mph0.6 kmh 29.48 in998.3 mb 0.00 in0.0 mm 0.00 in0.0 mm 0.08 in2.0 mm
09:46 PM 38.3°F3.5°C 41.4°F5.2°C 87% 2.4 mph SSE3.9 kmh SSE 2.4 mph3.9 kmh 29.48 in998.3 mb 0.00 in0.0 mm 0.00 in0.0 mm 0.08 in2.0 mm
09:49 PM 38.2°F3.4°C 41.2°F5.1°C 87% 2.8 mph NNW4.5 kmh NNW 2.8 mph4.5 kmh 29.47 in998.0 mb 0.00 in0.0 mm 0.00 in0.0 mm 0.08 in2.0 mm
09:52 PM 38.1°F3.4°C 41.1°F5.1°C 87% 1.6 mph S2.6 kmh S 1.6 mph2.6 kmh 29.47 in998.0 mb 0.00 in0.0 mm 0.00 in0.0 mm 0.08 in2.0 mm
09:55 PM 38.1°F3.4°C 41.1°F5.1°C 87% 4.0 mph NNW6.4 kmh NNW 4.0 mph6.4 kmh 29.48 in998.3 mb 0.00 in0.0 mm 0.00 in0.0 mm 0.08 in2.0 mm
09:58 PM 38.1°F3.4°C 41.2°F5.1°C 88% 2.8 mph SSE4.5 kmh SSE 2.9 mph4.7 kmh 29.47 in998.0 mb 0.00 in0.0 mm 0.00 in0.0 mm 0.10 in2.5 mm
10:01 PM 38.1°F3.4°C 41.3°F5.2°C 88% Calm Calm -- 29.47 in998.0 mb 0.00 in0.0 mm 0.00 in0.0 mm 0.10 in2.5 mm
10:04 PM 38.1°F3.4°C 41.5°F5.3°C 88% 0.8 mph SSE1.3 kmh SSE 0.8 mph1.3 kmh 29.47 in998.0 mb 0.00 in0.0 mm 0.00 in0.0 mm 0.10 in2.5 mm
10:07 PM 38.0°F3.3°C 41.4°F5.2°C 88% 0.4 mph SSE0.6 kmh SSE 0.4 mph0.6 kmh 29.47 in998.0 mb 0.00 in0.0 mm 0.00 in0.0 mm 0.10 in2.5 mm
10:10 PM 38.0°F3.3°C 41.1°F5.1°C 87% 0.4 mph S0.6 kmh S 0.4 mph0.6 kmh 29.47 in998.0 mb 0.00 in0.0 mm 0.00 in0.0 mm 0.10 in2.5 mm
10:13 PM 38.1°F3.4°C 41.3°F5.2°C 88% 0.4 mph SSE0.6 kmh SSE 0.4 mph0.6 kmh 29.47 in998.0 mb 0.00 in0.0 mm 0.00 in0.0 mm 0.10 in2.5 mm
10:16 PM 38.0°F3.3°C 41.2°F5.1°C 87% Calm Calm -- 29.47 in998.0 mb 0.00 in0.0 mm 0.00 in0.0 mm 0.10 in2.5 mm
10:19 PM 38.0°F3.3°C 41.5°F5.3°C 88% Calm Calm -- 29.47 in998.0 mb 0.00 in0.0 mm 0.00 in0.0 mm 0.10 in2.5 mm
10:22 PM 37.9°F3.3°C 41.9°F5.5°C 88% 0.8 mph SSE1.3 kmh SSE 0.8 mph1.3 kmh 29.47 in998.0 mb 0.00 in0.0 mm 0.00 in0.0 mm 0.10 in2.5 mm
10:25 PM 38.0°F3.3°C 41.6°F5.3°C 88% Calm Calm -- 29.47 in998.0 mb 0.00 in0.0 mm 0.00 in0.0 mm 0.10 in2.5 mm
10:28 PM 38.0°F3.3°C 41.5°F5.3°C 88% Calm Calm -- 29.47 in998.0 mb 0.00 in0.0 mm 0.00 in0.0 mm 0.10 in2.5 mm
10:31 PM 38.0°F3.3°C 41.7°F5.4°C 89% Calm Calm -- 29.47 in998.0 mb 0.00 in0.0 mm 0.00 in0.0 mm 0.12 in3.0 mm
10:34 PM 38.0°F3.3°C 41.5°F5.3°C 88% 0.4 mph NNW0.6 kmh NNW 0.4 mph0.6 kmh 29.47 in998.0 mb 0.00 in0.0 mm 0.00 in0.0 mm 0.12 in3.0 mm
10:37 PM 38.0°F3.3°C 41.5°F5.3°C 89% 0.8 mph S1.3 kmh S 0.8 mph1.3 kmh 29.47 in998.0 mb 0.00 in0.0 mm 0.00 in0.0 mm 0.12 in3.0 mm
10:40 PM 38.1°F3.4°C 41.6°F5.3°C 88% Calm Calm -- 29.47 in998.0 mb 0.00 in0.0 mm 0.00 in0.0 mm 0.12 in3.0 mm
10:43 PM 38.0°F3.3°C 41.6°F5.3°C 88% Calm Calm -- 29.47 in998.0 mb 0.00 in0.0 mm 0.00 in0.0 mm 0.12 in3.0 mm
10:46 PM 38.0°F3.3°C 41.5°F5.3°C 89% 0.4 mph S0.6 kmh S 0.4 mph0.6 kmh 29.47 in998.0 mb 0.00 in0.0 mm 0.00 in0.0 mm 0.12 in3.0 mm
10:49 PM 38.0°F3.3°C 41.7°F5.4°C 89% Calm Calm -- 29.47 in998.0 mb 0.00 in0.0 mm 0.00 in0.0 mm 0.12 in3.0 mm
10:52 PM 38.0°F3.3°C 41.5°F5.3°C 88% 2.8 mph NNW4.5 kmh NNW 2.9 mph4.7 kmh 29.47 in998.0 mb 0.00 in0.0 mm 0.00 in0.0 mm 0.12 in3.0 mm
10:55 PM 38.0°F3.3°C 41.3°F5.2°C 89% 0.4 mph S0.6 kmh S 0.4 mph0.6 kmh 29.47 in998.0 mb 0.00 in0.0 mm 0.00 in0.0 mm 0.14 in3.6 mm
10:58 PM 38.0°F3.3°C 41.7°F5.4°C 89% Calm Calm -- 29.47 in998.0 mb 0.00 in0.0 mm 0.00 in0.0 mm 0.14 in3.6 mm
11:01 PM 38.0°F3.3°C 41.3°F5.2°C 90% 4.9 mph NNW7.9 kmh NNW 4.9 mph7.9 kmh 29.47 in998.0 mb 0.00 in0.0 mm 0.00 in0.0 mm 0.14 in3.6 mm
11:04 PM 38.0°F3.3°C 41.5°F5.3°C 90% 2.4 mph NNW3.9 kmh NNW 2.4 mph3.9 kmh 29.47 in998.0 mb 0.00 in0.0 mm 0.00 in0.0 mm 0.14 in3.6 mm
11:07 PM 38.0°F3.3°C 41.4°F5.2°C 89% 1.6 mph S2.6 kmh S 1.6 mph2.6 kmh 29.47 in998.0 mb 0.00 in0.0 mm 0.00 in0.0 mm 0.14 in3.6 mm
11:10 PM 38.0°F3.3°C 41.2°F5.1°C 89% 3.6 mph S5.8 kmh S 3.6 mph5.8 kmh 29.47 in998.0 mb 0.00 in0.0 mm 0.00 in0.0 mm 0.14 in3.6 mm
11:13 PM 38.0°F3.3°C 41.6°F5.3°C 90% 1.6 mph SSE2.6 kmh SSE 1.6 mph2.6 kmh 29.47 in998.0 mb 0.00 in0.0 mm 0.00 in0.0 mm 0.14 in3.6 mm
11:16 PM 37.9°F3.3°C 41.7°F5.4°C 90% Calm Calm -- 29.47 in998.0 mb 0.00 in0.0 mm 0.00 in0.0 mm 0.16 in4.1 mm
11:19 PM 37.9°F3.3°C 41.9°F5.5°C 91% 0.8 mph S1.3 kmh S 0.8 mph1.3 kmh 29.47 in998.0 mb 0.00 in0.0 mm 0.00 in0.0 mm 0.16 in4.1 mm
11:22 PM 37.9°F3.3°C 41.7°F5.4°C 90% 1.6 mph SSE2.6 kmh SSE 1.6 mph2.6 kmh 29.47 in998.0 mb 0.00 in0.0 mm 0.00 in0.0 mm 0.16 in4.1 mm
11:25 PM 37.9°F3.3°C 41.8°F5.4°C 90% 1.2 mph SE1.9 kmh SE 1.2 mph1.9 kmh 29.47 in998.0 mb 0.00 in0.0 mm 0.00 in0.0 mm 0.16 in4.1 mm
11:28 PM 37.7°F3.2°C 41.6°F5.3°C 90% 1.2 mph SSE1.9 kmh SSE 1.2 mph1.9 kmh 29.47 in998.0 mb 0.00 in0.0 mm 0.00 in0.0 mm 0.16 in4.1 mm
11:31 PM 37.9°F3.3°C 41.9°F5.5°C 91% Calm Calm -- 29.47 in998.0 mb 0.00 in0.0 mm 0.00 in0.0 mm 0.18 in4.6 mm
11:34 PM 37.9°F3.3°C 42.0°F5.6°C 90% Calm Calm -- 29.47 in998.0 mb 0.00 in0.0 mm 0.00 in0.0 mm 0.18 in4.6 mm
11:37 PM 37.7°F3.2°C 41.7°F5.4°C 90% Calm Calm -- 29.47 in998.0 mb 0.00 in0.0 mm 0.00 in0.0 mm 0.18 in4.6 mm
11:40 PM 37.9°F3.3°C 41.7°F5.4°C 90% Calm Calm -- 29.46 in997.6 mb 0.00 in0.0 mm 0.00 in0.0 mm 0.18 in4.6 mm
11:43 PM 37.7°F3.2°C 41.8°F5.4°C 90% Calm Calm -- 29.47 in998.0 mb 0.00 in0.0 mm 0.00 in0.0 mm 0.18 in4.6 mm
11:46 PM 37.7°F3.2°C 41.9°F5.5°C 90% Calm Calm -- 29.47 in998.0 mb 0.00 in0.0 mm 0.00 in0.0 mm 0.20 in5.1 mm
11:49 PM 37.7°F3.2°C 41.8°F5.4°C 90% Calm Calm -- 29.46 in997.6 mb 0.00 in0.0 mm 0.00 in0.0 mm 0.20 in5.1 mm
11:52 PM 37.7°F3.2°C 41.8°F5.4°C 90% Calm Calm -- 29.47 in998.0 mb 0.00 in0.0 mm 0.00 in0.0 mm 0.20 in5.1 mm
11:55 PM 37.7°F3.2°C 41.9°F5.5°C 90% Calm Calm -- 29.46 in997.6 mb 0.00 in0.0 mm 0.00 in0.0 mm 0.20 in5.1 mm
11:58 PM 37.7°F3.2°C 42.0°F5.6°C 90% Calm Calm -- 29.46 in997.6 mb 0.00 in0.0 mm 0.00 in0.0 mm 0.20 in5.1 mm